<?xml version="1.0" encoding="UTF-8" standalone="no" ?>
<gpx xmlns="http://www.topografix.com/GPX/1/1" xmlns:xsi="http://www.w3.org/2001/XMLSchema-instance" xsi:schemaLocation="http://www.topografix.com/GPX/1/1 http://www.topografix.com/GPX/1/1/gpx.xsd" version="1.1" creator="VisuGPX - https://www.visugpx.com">
  <metadata>
    <name>Jura Tour des 4 lacs</name>
    <desc><![CDATA[Tour des 4 lacs et belvédères]]></desc>
  </metadata>
  <trk>
    <name><![CDATA[2019-05-22 07:41]]></name>
    <desc><![CDATA[<p>Heure de départ: 07:41 22 mai 2019<br/>Heure d'arrivée: 11:46 22 mai 2019<br/>Distance: 14,5 km (04:04)<br/>Temps déplacement: 03:22<br/>Vitesse moyenne: 3,57 km/h<br/>Vitesse moyenne mouv.: 4,31 km/h<br/>Vitesse Max.: 7,84 km/h<br/>Altitude minimale: 744 m<br/>Altitude maximale: 996 m<br/>Vitesse de montée: 206,7 m/h<br/>Vitesse de descente: -253,6 m/h<br/>Gain d'altitude: 452 m<br/>Perte d'altitude: -461 m<br/>Temps de montée: 02:11<br/>Temps de descente: 01:49<br/></p><hr align="center" width="480" style="height: 2px; width: 517px"/>]]></desc>
    <trkseg>
      <trkpt lat="46.61867" lon="5.88796">
        <ele>781.21</ele>
        <time>2019-05-22T05:41:59.000Z</time>
      </trkpt>
      <trkpt lat="46.61849" lon="5.88784">
        <ele>778.99</ele>
        <time>2019-05-22T05:43:19.000Z</time>
      </trkpt>
      <trkpt lat="46.61838" lon="5.88761">
        <ele>777.12</ele>
        <time>2019-05-22T05:43:37.000Z</time>
      </trkpt>
      <trkpt lat="46.61837" lon="5.88733">
        <ele>777.73</ele>
        <time>2019-05-22T05:43:52.000Z</time>
      </trkpt>
      <trkpt lat="46.61834" lon="5.88705">
        <ele>780.78</ele>
        <time>2019-05-22T05:44:11.000Z</time>
      </trkpt>
      <trkpt lat="46.61824" lon="5.88682">
        <ele>782.44</ele>
        <time>2019-05-22T05:44:26.000Z</time>
      </trkpt>
      <trkpt lat="46.61821" lon="5.88655">
        <ele>784.11</ele>
        <time>2019-05-22T05:44:39.000Z</time>
      </trkpt>
      <trkpt lat="46.6181" lon="5.88634">
        <ele>784.72</ele>
        <time>2019-05-22T05:44:55.000Z</time>
      </trkpt>
      <trkpt lat="46.61807" lon="5.88608">
        <ele>787.49</ele>
        <time>2019-05-22T05:45:10.000Z</time>
      </trkpt>
      <trkpt lat="46.61812" lon="5.88581">
        <ele>784.41</ele>
        <time>2019-05-22T05:45:24.000Z</time>
      </trkpt>
      <trkpt lat="46.61813" lon="5.88553">
        <ele>787.71</ele>
        <time>2019-05-22T05:45:39.000Z</time>
      </trkpt>
      <trkpt lat="46.61807" lon="5.88525">
        <ele>785.51</ele>
        <time>2019-05-22T05:45:54.000Z</time>
      </trkpt>
      <trkpt lat="46.61806" lon="5.88497">
        <ele>784.39</ele>
        <time>2019-05-22T05:46:10.000Z</time>
      </trkpt>
      <trkpt lat="46.61806" lon="5.8847">
        <ele>785.4</ele>
        <time>2019-05-22T05:46:27.000Z</time>
      </trkpt>
      <trkpt lat="46.61811" lon="5.88442">
        <ele>785.65</ele>
        <time>2019-05-22T05:46:44.000Z</time>
      </trkpt>
      <trkpt lat="46.61812" lon="5.88415">
        <ele>783.71</ele>
        <time>2019-05-22T05:47:03.000Z</time>
      </trkpt>
      <trkpt lat="46.6182" lon="5.88391">
        <ele>785.62</ele>
        <time>2019-05-22T05:47:15.000Z</time>
      </trkpt>
      <trkpt lat="46.6183" lon="5.88368">
        <ele>791.77</ele>
        <time>2019-05-22T05:47:38.000Z</time>
      </trkpt>
      <trkpt lat="46.61845" lon="5.88349">
        <ele>795.79</ele>
        <time>2019-05-22T05:47:55.000Z</time>
      </trkpt>
      <trkpt lat="46.61861" lon="5.88338">
        <ele>792.9</ele>
        <time>2019-05-22T05:48:08.000Z</time>
      </trkpt>
      <trkpt lat="46.61869" lon="5.88313">
        <ele>784.69</ele>
        <time>2019-05-22T05:48:21.000Z</time>
      </trkpt>
      <trkpt lat="46.61881" lon="5.8829">
        <ele>785.68</ele>
        <time>2019-05-22T05:48:34.000Z</time>
      </trkpt>
      <trkpt lat="46.61892" lon="5.88269">
        <ele>784.35</ele>
        <time>2019-05-22T05:48:45.000Z</time>
      </trkpt>
      <trkpt lat="46.61895" lon="5.88241">
        <ele>780.06</ele>
        <time>2019-05-22T05:48:57.000Z</time>
      </trkpt>
      <trkpt lat="46.61905" lon="5.88218">
        <ele>775.62</ele>
        <time>2019-05-22T05:49:09.000Z</time>
      </trkpt>
      <trkpt lat="46.61905" lon="5.88192">
        <ele>775.11</ele>
        <time>2019-05-22T05:49:25.000Z</time>
      </trkpt>
      <trkpt lat="46.6192" lon="5.88177">
        <ele>776.38</ele>
        <time>2019-05-22T05:49:54.000Z</time>
      </trkpt>
      <trkpt lat="46.61938" lon="5.88183">
        <ele>779.41</ele>
        <time>2019-05-22T05:50:14.000Z</time>
      </trkpt>
      <trkpt lat="46.61955" lon="5.88192">
        <ele>777.71</ele>
        <time>2019-05-22T05:50:30.000Z</time>
      </trkpt>
      <trkpt lat="46.61939" lon="5.88179">
        <ele>778.33</ele>
        <time>2019-05-22T05:51:17.000Z</time>
      </trkpt>
      <trkpt lat="46.61922" lon="5.88171">
        <ele>778.82</ele>
        <time>2019-05-22T05:51:32.000Z</time>
      </trkpt>
      <trkpt lat="46.61904" lon="5.88163">
        <ele>776.41</ele>
        <time>2019-05-22T05:51:46.000Z</time>
      </trkpt>
      <trkpt lat="46.61886" lon="5.88152">
        <ele>774.69</ele>
        <time>2019-05-22T05:51:59.000Z</time>
      </trkpt>
      <trkpt lat="46.61875" lon="5.88131">
        <ele>776.42</ele>
        <time>2019-05-22T05:52:13.000Z</time>
      </trkpt>
      <trkpt lat="46.61889" lon="5.88115">
        <ele>778.45</ele>
        <time>2019-05-22T05:52:51.000Z</time>
      </trkpt>
      <trkpt lat="46.61908" lon="5.8812">
        <ele>781.68</ele>
        <time>2019-05-22T05:53:05.000Z</time>
      </trkpt>
      <trkpt lat="46.61928" lon="5.88121">
        <ele>782.26</ele>
        <time>2019-05-22T05:53:19.000Z</time>
      </trkpt>
      <trkpt lat="46.61946" lon="5.8812">
        <ele>780.7</ele>
        <time>2019-05-22T05:53:40.000Z</time>
      </trkpt>
      <trkpt lat="46.61965" lon="5.88123">
        <ele>780.21</ele>
        <time>2019-05-22T05:53:55.000Z</time>
      </trkpt>
      <trkpt lat="46.61984" lon="5.88127">
        <ele>782.55</ele>
        <time>2019-05-22T05:54:10.000Z</time>
      </trkpt>
      <trkpt lat="46.62002" lon="5.88138">
        <ele>782.6</ele>
        <time>2019-05-22T05:54:24.000Z</time>
      </trkpt>
      <trkpt lat="46.6202" lon="5.88144">
        <ele>783.4</ele>
        <time>2019-05-22T05:54:37.000Z</time>
      </trkpt>
      <trkpt lat="46.62038" lon="5.88148">
        <ele>783.64</ele>
        <time>2019-05-22T05:54:52.000Z</time>
      </trkpt>
      <trkpt lat="46.62056" lon="5.88156">
        <ele>781.81</ele>
        <time>2019-05-22T05:55:06.000Z</time>
      </trkpt>
      <trkpt lat="46.62074" lon="5.88158">
        <ele>784.65</ele>
        <time>2019-05-22T05:55:20.000Z</time>
      </trkpt>
      <trkpt lat="46.62092" lon="5.88161">
        <ele>790.31</ele>
        <time>2019-05-22T05:55:36.000Z</time>
      </trkpt>
      <trkpt lat="46.6211" lon="5.88162">
        <ele>792.14</ele>
        <time>2019-05-22T05:55:50.000Z</time>
      </trkpt>
      <trkpt lat="46.62127" lon="5.88171">
        <ele>794.12</ele>
        <time>2019-05-22T05:56:06.000Z</time>
      </trkpt>
      <trkpt lat="46.62147" lon="5.88171">
        <ele>798.07</ele>
        <time>2019-05-22T05:56:22.000Z</time>
      </trkpt>
      <trkpt lat="46.62165" lon="5.88173">
        <ele>798.38</ele>
        <time>2019-05-22T05:56:33.000Z</time>
      </trkpt>
      <trkpt lat="46.62183" lon="5.88163">
        <ele>803.12</ele>
        <time>2019-05-22T05:56:47.000Z</time>
      </trkpt>
      <trkpt lat="46.62202" lon="5.88162">
        <ele>800.75</ele>
        <time>2019-05-22T05:57:03.000Z</time>
      </trkpt>
      <trkpt lat="46.6222" lon="5.88165">
        <ele>804.32</ele>
        <time>2019-05-22T05:57:16.000Z</time>
      </trkpt>
      <trkpt lat="46.62238" lon="5.88157">
        <ele>806.41</ele>
        <time>2019-05-22T05:57:31.000Z</time>
      </trkpt>
      <trkpt lat="46.62257" lon="5.88159">
        <ele>806.71</ele>
        <time>2019-05-22T05:57:43.000Z</time>
      </trkpt>
      <trkpt lat="46.62275" lon="5.88151">
        <ele>804.41</ele>
        <time>2019-05-22T05:57:56.000Z</time>
      </trkpt>
      <trkpt lat="46.62294" lon="5.88148">
        <ele>806.57</ele>
        <time>2019-05-22T05:58:11.000Z</time>
      </trkpt>
      <trkpt lat="46.62313" lon="5.88151">
        <ele>807.51</ele>
        <time>2019-05-22T05:58:25.000Z</time>
      </trkpt>
      <trkpt lat="46.62332" lon="5.88155">
        <ele>805.15</ele>
        <time>2019-05-22T05:58:40.000Z</time>
      </trkpt>
      <trkpt lat="46.6235" lon="5.88156">
        <ele>807.13</ele>
        <time>2019-05-22T05:58:56.000Z</time>
      </trkpt>
      <trkpt lat="46.62368" lon="5.88163">
        <ele>806.42</ele>
        <time>2019-05-22T05:59:09.000Z</time>
      </trkpt>
      <trkpt lat="46.62386" lon="5.88171">
        <ele>805.42</ele>
        <time>2019-05-22T05:59:24.000Z</time>
      </trkpt>
      <trkpt lat="46.62403" lon="5.88182">
        <ele>805.63</ele>
        <time>2019-05-22T05:59:37.000Z</time>
      </trkpt>
      <trkpt lat="46.6242" lon="5.88191">
        <ele>806.42</ele>
        <time>2019-05-22T05:59:50.000Z</time>
      </trkpt>
      <trkpt lat="46.62432" lon="5.88213">
        <ele>805.42</ele>
        <time>2019-05-22T06:00:03.000Z</time>
      </trkpt>
      <trkpt lat="46.62445" lon="5.88233">
        <ele>805.42</ele>
        <time>2019-05-22T06:00:17.000Z</time>
      </trkpt>
      <trkpt lat="46.6246" lon="5.8825">
        <ele>805.42</ele>
        <time>2019-05-22T06:00:34.000Z</time>
      </trkpt>
      <trkpt lat="46.62475" lon="5.88268">
        <ele>804.44</ele>
        <time>2019-05-22T06:00:48.000Z</time>
      </trkpt>
      <trkpt lat="46.62489" lon="5.88284">
        <ele>803.44</ele>
        <time>2019-05-22T06:01:00.000Z</time>
      </trkpt>
      <trkpt lat="46.62504" lon="5.88302">
        <ele>802.42</ele>
        <time>2019-05-22T06:01:14.000Z</time>
      </trkpt>
      <trkpt lat="46.62518" lon="5.8832">
        <ele>800.42</ele>
        <time>2019-05-22T06:01:28.000Z</time>
      </trkpt>
      <trkpt lat="46.6253" lon="5.88343">
        <ele>800.14</ele>
        <time>2019-05-22T06:01:40.000Z</time>
      </trkpt>
      <trkpt lat="46.62549" lon="5.8835">
        <ele>799.42</ele>
        <time>2019-05-22T06:01:53.000Z</time>
      </trkpt>
      <trkpt lat="46.62567" lon="5.88358">
        <ele>798.42</ele>
        <time>2019-05-22T06:02:07.000Z</time>
      </trkpt>
      <trkpt lat="46.6258" lon="5.88378">
        <ele>798.42</ele>
        <time>2019-05-22T06:02:20.000Z</time>
      </trkpt>
      <trkpt lat="46.62594" lon="5.88398">
        <ele>797.42</ele>
        <time>2019-05-22T06:02:32.000Z</time>
      </trkpt>
      <trkpt lat="46.62606" lon="5.88418">
        <ele>797.42</ele>
        <time>2019-05-22T06:02:49.000Z</time>
      </trkpt>
      <trkpt lat="46.62624" lon="5.88431">
        <ele>799.39</ele>
        <time>2019-05-22T06:03:01.000Z</time>
      </trkpt>
      <trkpt lat="46.6264" lon="5.88444">
        <ele>798.42</ele>
        <time>2019-05-22T06:03:14.000Z</time>
      </trkpt>
      <trkpt lat="46.62653" lon="5.88463">
        <ele>799.12</ele>
        <time>2019-05-22T06:03:27.000Z</time>
      </trkpt>
      <trkpt lat="46.62669" lon="5.88478">
        <ele>800.42</ele>
        <time>2019-05-22T06:03:40.000Z</time>
      </trkpt>
      <trkpt lat="46.62683" lon="5.88495">
        <ele>799.42</ele>
        <time>2019-05-22T06:03:55.000Z</time>
      </trkpt>
      <trkpt lat="46.62695" lon="5.88516">
        <ele>800.12</ele>
        <time>2019-05-22T06:04:11.000Z</time>
      </trkpt>
      <trkpt lat="46.62709" lon="5.88533">
        <ele>800.12</ele>
        <time>2019-05-22T06:04:24.000Z</time>
      </trkpt>
      <trkpt lat="46.62724" lon="5.88548">
        <ele>800.4</ele>
        <time>2019-05-22T06:04:38.000Z</time>
      </trkpt>
      <trkpt lat="46.62739" lon="5.88565">
        <ele>800.42</ele>
        <time>2019-05-22T06:04:51.000Z</time>
      </trkpt>
      <trkpt lat="46.62755" lon="5.88578">
        <ele>799.42</ele>
        <time>2019-05-22T06:05:03.000Z</time>
      </trkpt>
      <trkpt lat="46.62768" lon="5.88597">
        <ele>800.42</ele>
        <time>2019-05-22T06:05:17.000Z</time>
      </trkpt>
      <trkpt lat="46.62781" lon="5.88615">
        <ele>800.42</ele>
        <time>2019-05-22T06:05:33.000Z</time>
      </trkpt>
      <trkpt lat="46.62799" lon="5.88623">
        <ele>799.42</ele>
        <time>2019-05-22T06:05:46.000Z</time>
      </trkpt>
      <trkpt lat="46.62811" lon="5.88644">
        <ele>797.3</ele>
        <time>2019-05-22T06:06:22.000Z</time>
      </trkpt>
      <trkpt lat="46.62826" lon="5.88659">
        <ele>795.41</ele>
        <time>2019-05-22T06:06:37.000Z</time>
      </trkpt>
      <trkpt lat="46.62839" lon="5.88678">
        <ele>794.44</ele>
        <time>2019-05-22T06:06:53.000Z</time>
      </trkpt>
      <trkpt lat="46.62854" lon="5.88695">
        <ele>794.43</ele>
        <time>2019-05-22T06:07:06.000Z</time>
      </trkpt>
      <trkpt lat="46.6287" lon="5.8871">
        <ele>794.42</ele>
        <time>2019-05-22T06:07:24.000Z</time>
      </trkpt>
      <trkpt lat="46.62885" lon="5.88722">
        <ele>792.42</ele>
        <time>2019-05-22T06:07:40.000Z</time>
      </trkpt>
      <trkpt lat="46.629" lon="5.88738">
        <ele>790.51</ele>
        <time>2019-05-22T06:07:54.000Z</time>
      </trkpt>
      <trkpt lat="46.62917" lon="5.8875">
        <ele>789.42</ele>
        <time>2019-05-22T06:08:07.000Z</time>
      </trkpt>
      <trkpt lat="46.62933" lon="5.88764">
        <ele>789.42</ele>
        <time>2019-05-22T06:08:23.000Z</time>
      </trkpt>
      <trkpt lat="46.62946" lon="5.88782">
        <ele>788.42</ele>
        <time>2019-05-22T06:08:36.000Z</time>
      </trkpt>
      <trkpt lat="46.62964" lon="5.88792">
        <ele>787.44</ele>
        <time>2019-05-22T06:08:50.000Z</time>
      </trkpt>
      <trkpt lat="46.62977" lon="5.88812">
        <ele>787.42</ele>
        <time>2019-05-22T06:09:03.000Z</time>
      </trkpt>
      <trkpt lat="46.62991" lon="5.88828">
        <ele>787.42</ele>
        <time>2019-05-22T06:09:21.000Z</time>
      </trkpt>
      <trkpt lat="46.63007" lon="5.88841">
        <ele>786.42</ele>
        <time>2019-05-22T06:09:39.000Z</time>
      </trkpt>
      <trkpt lat="46.63021" lon="5.88859">
        <ele>787.14</ele>
        <time>2019-05-22T06:10:50.000Z</time>
      </trkpt>
      <trkpt lat="46.63038" lon="5.88873">
        <ele>789.39</ele>
        <time>2019-05-22T06:11:05.000Z</time>
      </trkpt>
      <trkpt lat="46.63053" lon="5.88889">
        <ele>786.7</ele>
        <time>2019-05-22T06:11:18.000Z</time>
      </trkpt>
      <trkpt lat="46.6306" lon="5.88913">
        <ele>786.44</ele>
        <time>2019-05-22T06:11:31.000Z</time>
      </trkpt>
      <trkpt lat="46.63071" lon="5.88935">
        <ele>785.42</ele>
        <time>2019-05-22T06:11:44.000Z</time>
      </trkpt>
      <trkpt lat="46.63087" lon="5.88948">
        <ele>784.42</ele>
        <time>2019-05-22T06:11:56.000Z</time>
      </trkpt>
      <trkpt lat="46.631" lon="5.88966">
        <ele>782.42</ele>
        <time>2019-05-22T06:12:12.000Z</time>
      </trkpt>
      <trkpt lat="46.63118" lon="5.88979">
        <ele>781.51</ele>
        <time>2019-05-22T06:12:24.000Z</time>
      </trkpt>
      <trkpt lat="46.63125" lon="5.89003">
        <ele>781.43</ele>
        <time>2019-05-22T06:12:35.000Z</time>
      </trkpt>
      <trkpt lat="46.63136" lon="5.89027">
        <ele>781.71</ele>
        <time>2019-05-22T06:12:47.000Z</time>
      </trkpt>
      <trkpt lat="46.6315" lon="5.89044">
        <ele>781.42</ele>
        <time>2019-05-22T06:13:00.000Z</time>
      </trkpt>
      <trkpt lat="46.63156" lon="5.8907">
        <ele>780.72</ele>
        <time>2019-05-22T06:13:12.000Z</time>
      </trkpt>
      <trkpt lat="46.63168" lon="5.8909">
        <ele>780.49</ele>
        <time>2019-05-22T06:13:26.000Z</time>
      </trkpt>
      <trkpt lat="46.6318" lon="5.8911">
        <ele>778.42</ele>
        <time>2019-05-22T06:13:39.000Z</time>
      </trkpt>
      <trkpt lat="46.63194" lon="5.89128">
        <ele>779.41</ele>
        <time>2019-05-22T06:13:52.000Z</time>
      </trkpt>
      <trkpt lat="46.63209" lon="5.89144">
        <ele>778.42</ele>
        <time>2019-05-22T06:14:06.000Z</time>
      </trkpt>
      <trkpt lat="46.63222" lon="5.89164">
        <ele>779.41</ele>
        <time>2019-05-22T06:14:20.000Z</time>
      </trkpt>
      <trkpt lat="46.63239" lon="5.89172">
        <ele>778.42</ele>
        <time>2019-05-22T06:14:32.000Z</time>
      </trkpt>
      <trkpt lat="46.6325" lon="5.89194">
        <ele>779.42</ele>
        <time>2019-05-22T06:14:46.000Z</time>
      </trkpt>
      <trkpt lat="46.63254" lon="5.89221">
        <ele>777.43</ele>
        <time>2019-05-22T06:14:59.000Z</time>
      </trkpt>
      <trkpt lat="46.6326" lon="5.89247">
        <ele>777.42</ele>
        <time>2019-05-22T06:15:13.000Z</time>
      </trkpt>
      <trkpt lat="46.63273" lon="5.89267">
        <ele>777.42</ele>
        <time>2019-05-22T06:15:26.000Z</time>
      </trkpt>
      <trkpt lat="46.63287" lon="5.89286">
        <ele>776.44</ele>
        <time>2019-05-22T06:15:40.000Z</time>
      </trkpt>
      <trkpt lat="46.63303" lon="5.893">
        <ele>777.39</ele>
        <time>2019-05-22T06:15:52.000Z</time>
      </trkpt>
      <trkpt lat="46.63321" lon="5.89306">
        <ele>775.51</ele>
        <time>2019-05-22T06:16:04.000Z</time>
      </trkpt>
      <trkpt lat="46.63339" lon="5.89314">
        <ele>775.42</ele>
        <time>2019-05-22T06:16:16.000Z</time>
      </trkpt>
      <trkpt lat="46.63352" lon="5.89333">
        <ele>775.12</ele>
        <time>2019-05-22T06:16:30.000Z</time>
      </trkpt>
      <trkpt lat="46.63363" lon="5.89356">
        <ele>774.42</ele>
        <time>2019-05-22T06:16:43.000Z</time>
      </trkpt>
      <trkpt lat="46.6337" lon="5.89381">
        <ele>774.42</ele>
        <time>2019-05-22T06:16:55.000Z</time>
      </trkpt>
      <trkpt lat="46.63378" lon="5.89404">
        <ele>773.44</ele>
        <time>2019-05-22T06:17:06.000Z</time>
      </trkpt>
      <trkpt lat="46.63387" lon="5.89427">
        <ele>773.42</ele>
        <time>2019-05-22T06:17:19.000Z</time>
      </trkpt>
      <trkpt lat="46.63392" lon="5.89454">
        <ele>774.42</ele>
        <time>2019-05-22T06:17:33.000Z</time>
      </trkpt>
      <trkpt lat="46.63406" lon="5.89473">
        <ele>774.39</ele>
        <time>2019-05-22T06:17:44.000Z</time>
      </trkpt>
      <trkpt lat="46.63411" lon="5.895">
        <ele>773.42</ele>
        <time>2019-05-22T06:17:57.000Z</time>
      </trkpt>
      <trkpt lat="46.63406" lon="5.89526">
        <ele>774.42</ele>
        <time>2019-05-22T06:18:09.000Z</time>
      </trkpt>
      <trkpt lat="46.63405" lon="5.89554">
        <ele>776.41</ele>
        <time>2019-05-22T06:18:23.000Z</time>
      </trkpt>
      <trkpt lat="46.63396" lon="5.89579">
        <ele>777.42</ele>
        <time>2019-05-22T06:18:37.000Z</time>
      </trkpt>
      <trkpt lat="46.63399" lon="5.89605">
        <ele>777.44</ele>
        <time>2019-05-22T06:18:51.000Z</time>
      </trkpt>
      <trkpt lat="46.63405" lon="5.89632">
        <ele>778.39</ele>
        <time>2019-05-22T06:19:04.000Z</time>
      </trkpt>
      <trkpt lat="46.63413" lon="5.89656">
        <ele>779.42</ele>
        <time>2019-05-22T06:19:17.000Z</time>
      </trkpt>
      <trkpt lat="46.63422" lon="5.8968">
        <ele>782.11</ele>
        <time>2019-05-22T06:19:31.000Z</time>
      </trkpt>
      <trkpt lat="46.63434" lon="5.89702">
        <ele>782.42</ele>
        <time>2019-05-22T06:19:43.000Z</time>
      </trkpt>
      <trkpt lat="46.63447" lon="5.8972">
        <ele>781.42</ele>
        <time>2019-05-22T06:19:58.000Z</time>
      </trkpt>
      <trkpt lat="46.63465" lon="5.89716">
        <ele>783.11</ele>
        <time>2019-05-22T06:20:16.000Z</time>
      </trkpt>
      <trkpt lat="46.63483" lon="5.89716">
        <ele>785.12</ele>
        <time>2019-05-22T06:20:30.000Z</time>
      </trkpt>
      <trkpt lat="46.63502" lon="5.89709">
        <ele>786.35</ele>
        <time>2019-05-22T06:20:43.000Z</time>
      </trkpt>
      <trkpt lat="46.63519" lon="5.897">
        <ele>786.2</ele>
        <time>2019-05-22T06:20:56.000Z</time>
      </trkpt>
      <trkpt lat="46.63538" lon="5.89697">
        <ele>786.42</ele>
        <time>2019-05-22T06:21:10.000Z</time>
      </trkpt>
      <trkpt lat="46.63556" lon="5.89697">
        <ele>787.42</ele>
        <time>2019-05-22T06:21:23.000Z</time>
      </trkpt>
      <trkpt lat="46.63574" lon="5.89702">
        <ele>788.33</ele>
        <time>2019-05-22T06:21:37.000Z</time>
      </trkpt>
      <trkpt lat="46.63593" lon="5.89698">
        <ele>788.42</ele>
        <time>2019-05-22T06:21:52.000Z</time>
      </trkpt>
      <trkpt lat="46.63612" lon="5.89699">
        <ele>789.42</ele>
        <time>2019-05-22T06:22:06.000Z</time>
      </trkpt>
      <trkpt lat="46.6363" lon="5.897">
        <ele>790.39</ele>
        <time>2019-05-22T06:22:19.000Z</time>
      </trkpt>
      <trkpt lat="46.63646" lon="5.89715">
        <ele>792.42</ele>
        <time>2019-05-22T06:23:50.000Z</time>
      </trkpt>
      <trkpt lat="46.63663" lon="5.89725">
        <ele>793.42</ele>
        <time>2019-05-22T06:24:01.000Z</time>
      </trkpt>
      <trkpt lat="46.63681" lon="5.89732">
        <ele>793.42</ele>
        <time>2019-05-22T06:24:15.000Z</time>
      </trkpt>
      <trkpt lat="46.63699" lon="5.89739">
        <ele>793.44</ele>
        <time>2019-05-22T06:24:27.000Z</time>
      </trkpt>
      <trkpt lat="46.63715" lon="5.89755">
        <ele>795.41</ele>
        <time>2019-05-22T06:24:43.000Z</time>
      </trkpt>
      <trkpt lat="46.63729" lon="5.89771">
        <ele>797.42</ele>
        <time>2019-05-22T06:25:27.000Z</time>
      </trkpt>
      <trkpt lat="46.63744" lon="5.89787">
        <ele>796.41</ele>
        <time>2019-05-22T06:25:41.000Z</time>
      </trkpt>
      <trkpt lat="46.6376" lon="5.89802">
        <ele>794.69</ele>
        <time>2019-05-22T06:25:54.000Z</time>
      </trkpt>
      <trkpt lat="46.63765" lon="5.89828">
        <ele>794.63</ele>
        <time>2019-05-22T06:26:06.000Z</time>
      </trkpt>
      <trkpt lat="46.63764" lon="5.89855">
        <ele>793.42</ele>
        <time>2019-05-22T06:26:18.000Z</time>
      </trkpt>
      <trkpt lat="46.63757" lon="5.89881">
        <ele>792.42</ele>
        <time>2019-05-22T06:26:29.000Z</time>
      </trkpt>
      <trkpt lat="46.63752" lon="5.89908">
        <ele>792.42</ele>
        <time>2019-05-22T06:26:42.000Z</time>
      </trkpt>
      <trkpt lat="46.63751" lon="5.89935">
        <ele>792.42</ele>
        <time>2019-05-22T06:26:55.000Z</time>
      </trkpt>
      <trkpt lat="46.63746" lon="5.89961">
        <ele>791.42</ele>
        <time>2019-05-22T06:27:06.000Z</time>
      </trkpt>
      <trkpt lat="46.63762" lon="5.89976">
        <ele>791.42</ele>
        <time>2019-05-22T06:27:19.000Z</time>
      </trkpt>
      <trkpt lat="46.6378" lon="5.89975">
        <ele>791.42</ele>
        <time>2019-05-22T06:27:41.000Z</time>
      </trkpt>
      <trkpt lat="46.63798" lon="5.89978">
        <ele>793.41</ele>
        <time>2019-05-22T06:27:54.000Z</time>
      </trkpt>
      <trkpt lat="46.63816" lon="5.89983">
        <ele>795.12</ele>
        <time>2019-05-22T06:28:08.000Z</time>
      </trkpt>
      <trkpt lat="46.63834" lon="5.8999">
        <ele>798.03</ele>
        <time>2019-05-22T06:28:23.000Z</time>
      </trkpt>
      <trkpt lat="46.63851" lon="5.90003">
        <ele>802.64</ele>
        <time>2019-05-22T06:28:37.000Z</time>
      </trkpt>
      <trkpt lat="46.63869" lon="5.90013">
        <ele>804.33</ele>
        <time>2019-05-22T06:28:52.000Z</time>
      </trkpt>
      <trkpt lat="46.63885" lon="5.90025">
        <ele>799.24</ele>
        <time>2019-05-22T06:29:06.000Z</time>
      </trkpt>
      <trkpt lat="46.63903" lon="5.90023">
        <ele>797.66</ele>
        <time>2019-05-22T06:29:19.000Z</time>
      </trkpt>
      <trkpt lat="46.63921" lon="5.90026">
        <ele>798.73</ele>
        <time>2019-05-22T06:29:31.000Z</time>
      </trkpt>
      <trkpt lat="46.63939" lon="5.90038">
        <ele>804.77</ele>
        <time>2019-05-22T06:29:45.000Z</time>
      </trkpt>
      <trkpt lat="46.63957" lon="5.90045">
        <ele>801.95</ele>
        <time>2019-05-22T06:29:59.000Z</time>
      </trkpt>
      <trkpt lat="46.63975" lon="5.90053">
        <ele>800.6</ele>
        <time>2019-05-22T06:30:10.000Z</time>
      </trkpt>
      <trkpt lat="46.63989" lon="5.9007">
        <ele>801.32</ele>
        <time>2019-05-22T06:30:21.000Z</time>
      </trkpt>
      <trkpt lat="46.64006" lon="5.90085">
        <ele>798.89</ele>
        <time>2019-05-22T06:30:35.000Z</time>
      </trkpt>
      <trkpt lat="46.64022" lon="5.90103">
        <ele>795.53</ele>
        <time>2019-05-22T06:30:49.000Z</time>
      </trkpt>
      <trkpt lat="46.64035" lon="5.90124">
        <ele>799.11</ele>
        <time>2019-05-22T06:31:00.000Z</time>
      </trkpt>
      <trkpt lat="46.64046" lon="5.90145">
        <ele>797.42</ele>
        <time>2019-05-22T06:31:12.000Z</time>
      </trkpt>
      <trkpt lat="46.64054" lon="5.90168">
        <ele>796.49</ele>
        <time>2019-05-22T06:31:26.000Z</time>
      </trkpt>
      <trkpt lat="46.64067" lon="5.90188">
        <ele>789.03</ele>
        <time>2019-05-22T06:31:55.000Z</time>
      </trkpt>
      <trkpt lat="46.64077" lon="5.90211">
        <ele>791.2</ele>
        <time>2019-05-22T06:32:06.000Z</time>
      </trkpt>
      <trkpt lat="46.64088" lon="5.90232">
        <ele>793.21</ele>
        <time>2019-05-22T06:32:18.000Z</time>
      </trkpt>
      <trkpt lat="46.64103" lon="5.90251">
        <ele>789.83</ele>
        <time>2019-05-22T06:32:33.000Z</time>
      </trkpt>
      <trkpt lat="46.64115" lon="5.9027">
        <ele>787.56</ele>
        <time>2019-05-22T06:32:45.000Z</time>
      </trkpt>
      <trkpt lat="46.64129" lon="5.90288">
        <ele>784.45</ele>
        <time>2019-05-22T06:32:56.000Z</time>
      </trkpt>
      <trkpt lat="46.64145" lon="5.90307">
        <ele>780.29</ele>
        <time>2019-05-22T06:33:12.000Z</time>
      </trkpt>
      <trkpt lat="46.64161" lon="5.90319">
        <ele>775.33</ele>
        <time>2019-05-22T06:33:47.000Z</time>
      </trkpt>
      <trkpt lat="46.64178" lon="5.90329">
        <ele>772</ele>
        <time>2019-05-22T06:34:02.000Z</time>
      </trkpt>
      <trkpt lat="46.64196" lon="5.90331">
        <ele>771.74</ele>
        <time>2019-05-22T06:34:13.000Z</time>
      </trkpt>
      <trkpt lat="46.64214" lon="5.90344">
        <ele>767.47</ele>
        <time>2019-05-22T06:34:29.000Z</time>
      </trkpt>
      <trkpt lat="46.64225" lon="5.90365">
        <ele>764.44</ele>
        <time>2019-05-22T06:34:43.000Z</time>
      </trkpt>
      <trkpt lat="46.64229" lon="5.90391">
        <ele>764.39</ele>
        <time>2019-05-22T06:34:56.000Z</time>
      </trkpt>
      <trkpt lat="46.64236" lon="5.90417">
        <ele>763.11</ele>
        <time>2019-05-22T06:35:08.000Z</time>
      </trkpt>
      <trkpt lat="46.64254" lon="5.90429">
        <ele>762.74</ele>
        <time>2019-05-22T06:35:21.000Z</time>
      </trkpt>
      <trkpt lat="46.64271" lon="5.90414">
        <ele>762.74</ele>
        <time>2019-05-22T06:35:34.000Z</time>
      </trkpt>
      <trkpt lat="46.64286" lon="5.904">
        <ele>754.51</ele>
        <time>2019-05-22T06:35:45.000Z</time>
      </trkpt>
      <trkpt lat="46.64303" lon="5.90391">
        <ele>757.81</ele>
        <time>2019-05-22T06:35:57.000Z</time>
      </trkpt>
      <trkpt lat="46.64322" lon="5.9039">
        <ele>756.12</ele>
        <time>2019-05-22T06:36:09.000Z</time>
      </trkpt>
      <trkpt lat="46.64341" lon="5.90391">
        <ele>751.77</ele>
        <time>2019-05-22T06:36:22.000Z</time>
      </trkpt>
      <trkpt lat="46.64359" lon="5.90393">
        <ele>750.67</ele>
        <time>2019-05-22T06:36:36.000Z</time>
      </trkpt>
      <trkpt lat="46.64376" lon="5.90408">
        <ele>754.1</ele>
        <time>2019-05-22T06:36:49.000Z</time>
      </trkpt>
      <trkpt lat="46.64387" lon="5.9043">
        <ele>753.6</ele>
        <time>2019-05-22T06:37:03.000Z</time>
      </trkpt>
      <trkpt lat="46.64391" lon="5.90457">
        <ele>752.62</ele>
        <time>2019-05-22T06:37:16.000Z</time>
      </trkpt>
      <trkpt lat="46.64393" lon="5.90484">
        <ele>750.43</ele>
        <time>2019-05-22T06:37:29.000Z</time>
      </trkpt>
      <trkpt lat="46.64398" lon="5.90511">
        <ele>753.41</ele>
        <time>2019-05-22T06:37:42.000Z</time>
      </trkpt>
      <trkpt lat="46.64395" lon="5.90538">
        <ele>751.43</ele>
        <time>2019-05-22T06:37:54.000Z</time>
      </trkpt>
      <trkpt lat="46.64394" lon="5.90565">
        <ele>747.84</ele>
        <time>2019-05-22T06:38:06.000Z</time>
      </trkpt>
      <trkpt lat="46.64395" lon="5.90593">
        <ele>745.54</ele>
        <time>2019-05-22T06:38:19.000Z</time>
      </trkpt>
      <trkpt lat="46.64397" lon="5.9062">
        <ele>749.17</ele>
        <time>2019-05-22T06:38:31.000Z</time>
      </trkpt>
      <trkpt lat="46.64403" lon="5.90647">
        <ele>749.65</ele>
        <time>2019-05-22T06:38:44.000Z</time>
      </trkpt>
      <trkpt lat="46.6441" lon="5.90675">
        <ele>751.15</ele>
        <time>2019-05-22T06:39:15.000Z</time>
      </trkpt>
      <trkpt lat="46.64414" lon="5.90702">
        <ele>747.31</ele>
        <time>2019-05-22T06:39:27.000Z</time>
      </trkpt>
      <trkpt lat="46.6442" lon="5.90727">
        <ele>749.02</ele>
        <time>2019-05-22T06:39:42.000Z</time>
      </trkpt>
      <trkpt lat="46.64421" lon="5.90758">
        <ele>746.45</ele>
        <time>2019-05-22T06:40:15.000Z</time>
      </trkpt>
      <trkpt lat="46.64437" lon="5.90745">
        <ele>744.43</ele>
        <time>2019-05-22T06:41:46.000Z</time>
      </trkpt>
      <trkpt lat="46.64421" lon="5.90759">
        <ele>747.72</ele>
        <time>2019-05-22T06:42:41.000Z</time>
      </trkpt>
      <trkpt lat="46.64426" lon="5.90785">
        <ele>746.35</ele>
        <time>2019-05-22T06:42:53.000Z</time>
      </trkpt>
      <trkpt lat="46.64425" lon="5.90811">
        <ele>744.43</ele>
        <time>2019-05-22T06:43:06.000Z</time>
      </trkpt>
      <trkpt lat="46.64429" lon="5.90838">
        <ele>745.91</ele>
        <time>2019-05-22T06:43:21.000Z</time>
      </trkpt>
      <trkpt lat="46.64434" lon="5.90864">
        <ele>748.18</ele>
        <time>2019-05-22T06:43:34.000Z</time>
      </trkpt>
      <trkpt lat="46.64436" lon="5.9089">
        <ele>748.48</ele>
        <time>2019-05-22T06:43:46.000Z</time>
      </trkpt>
      <trkpt lat="46.64443" lon="5.90916">
        <ele>746.39</ele>
        <time>2019-05-22T06:44:16.000Z</time>
      </trkpt>
      <trkpt lat="46.64451" lon="5.9094">
        <ele>744.87</ele>
        <time>2019-05-22T06:44:28.000Z</time>
      </trkpt>
      <trkpt lat="46.64454" lon="5.90968">
        <ele>747.59</ele>
        <time>2019-05-22T06:44:40.000Z</time>
      </trkpt>
      <trkpt lat="46.64462" lon="5.90993">
        <ele>747.42</ele>
        <time>2019-05-22T06:44:53.000Z</time>
      </trkpt>
      <trkpt lat="46.64471" lon="5.91016">
        <ele>747.4</ele>
        <time>2019-05-22T06:45:05.000Z</time>
      </trkpt>
      <trkpt lat="46.64476" lon="5.91042">
        <ele>747.49</ele>
        <time>2019-05-22T06:45:17.000Z</time>
      </trkpt>
      <trkpt lat="46.64485" lon="5.91065">
        <ele>747.09</ele>
        <time>2019-05-22T06:45:30.000Z</time>
      </trkpt>
      <trkpt lat="46.64488" lon="5.91091">
        <ele>745.69</ele>
        <time>2019-05-22T06:45:42.000Z</time>
      </trkpt>
      <trkpt lat="46.64494" lon="5.91117">
        <ele>749.67</ele>
        <time>2019-05-22T06:45:55.000Z</time>
      </trkpt>
      <trkpt lat="46.64498" lon="5.91145">
        <ele>746.48</ele>
        <time>2019-05-22T06:46:08.000Z</time>
      </trkpt>
      <trkpt lat="46.64504" lon="5.91172">
        <ele>749.14</ele>
        <time>2019-05-22T06:46:22.000Z</time>
      </trkpt>
      <trkpt lat="46.64505" lon="5.91199">
        <ele>747.19</ele>
        <time>2019-05-22T06:46:34.000Z</time>
      </trkpt>
      <trkpt lat="46.64506" lon="5.91226">
        <ele>748.41</ele>
        <time>2019-05-22T06:46:48.000Z</time>
      </trkpt>
      <trkpt lat="46.645" lon="5.91253">
        <ele>748.48</ele>
        <time>2019-05-22T06:47:02.000Z</time>
      </trkpt>
      <trkpt lat="46.64499" lon="5.9128">
        <ele>750.06</ele>
        <time>2019-05-22T06:47:15.000Z</time>
      </trkpt>
      <trkpt lat="46.64496" lon="5.91307">
        <ele>748.76</ele>
        <time>2019-05-22T06:47:28.000Z</time>
      </trkpt>
      <trkpt lat="46.64499" lon="5.91334">
        <ele>750.71</ele>
        <time>2019-05-22T06:47:41.000Z</time>
      </trkpt>
      <trkpt lat="46.64511" lon="5.91357">
        <ele>746.81</ele>
        <time>2019-05-22T06:47:55.000Z</time>
      </trkpt>
      <trkpt lat="46.64527" lon="5.9137">
        <ele>750.11</ele>
        <time>2019-05-22T06:48:08.000Z</time>
      </trkpt>
      <trkpt lat="46.64542" lon="5.91384">
        <ele>747.81</ele>
        <time>2019-05-22T06:48:20.000Z</time>
      </trkpt>
      <trkpt lat="46.64555" lon="5.91406">
        <ele>749.65</ele>
        <time>2019-05-22T06:48:33.000Z</time>
      </trkpt>
      <trkpt lat="46.64573" lon="5.91415">
        <ele>748.19</ele>
        <time>2019-05-22T06:48:49.000Z</time>
      </trkpt>
      <trkpt lat="46.64588" lon="5.91431">
        <ele>750.11</ele>
        <time>2019-05-22T06:49:15.000Z</time>
      </trkpt>
      <trkpt lat="46.64605" lon="5.91443">
        <ele>748.74</ele>
        <time>2019-05-22T06:49:27.000Z</time>
      </trkpt>
      <trkpt lat="46.6462" lon="5.91457">
        <ele>749.21</ele>
        <time>2019-05-22T06:49:40.000Z</time>
      </trkpt>
      <trkpt lat="46.64636" lon="5.9147">
        <ele>752.78</ele>
        <time>2019-05-22T06:49:52.000Z</time>
      </trkpt>
      <trkpt lat="46.64642" lon="5.91495">
        <ele>748.63</ele>
        <time>2019-05-22T06:50:03.000Z</time>
      </trkpt>
      <trkpt lat="46.64648" lon="5.91522">
        <ele>750.12</ele>
        <time>2019-05-22T06:50:16.000Z</time>
      </trkpt>
      <trkpt lat="46.64647" lon="5.9155">
        <ele>752.32</ele>
        <time>2019-05-22T06:50:30.000Z</time>
      </trkpt>
      <trkpt lat="46.64646" lon="5.91576">
        <ele>752.8</ele>
        <time>2019-05-22T06:50:43.000Z</time>
      </trkpt>
      <trkpt lat="46.64642" lon="5.91603">
        <ele>755.11</ele>
        <time>2019-05-22T06:51:01.000Z</time>
      </trkpt>
      <trkpt lat="46.64638" lon="5.91629">
        <ele>754.74</ele>
        <time>2019-05-22T06:51:13.000Z</time>
      </trkpt>
      <trkpt lat="46.64627" lon="5.91652">
        <ele>755.48</ele>
        <time>2019-05-22T06:51:26.000Z</time>
      </trkpt>
      <trkpt lat="46.64617" lon="5.91675">
        <ele>757.11</ele>
        <time>2019-05-22T06:51:39.000Z</time>
      </trkpt>
      <trkpt lat="46.64603" lon="5.91693">
        <ele>755.72</ele>
        <time>2019-05-22T06:51:51.000Z</time>
      </trkpt>
      <trkpt lat="46.6459" lon="5.91711">
        <ele>753.2</ele>
        <time>2019-05-22T06:52:18.000Z</time>
      </trkpt>
      <trkpt lat="46.64573" lon="5.91726">
        <ele>758</ele>
        <time>2019-05-22T06:52:42.000Z</time>
      </trkpt>
      <trkpt lat="46.64564" lon="5.9175">
        <ele>756.76</ele>
        <time>2019-05-22T06:52:53.000Z</time>
      </trkpt>
      <trkpt lat="46.64546" lon="5.91752">
        <ele>754.35</ele>
        <time>2019-05-22T06:53:20.000Z</time>
      </trkpt>
      <trkpt lat="46.64528" lon="5.91758">
        <ele>752.04</ele>
        <time>2019-05-22T06:53:58.000Z</time>
      </trkpt>
      <trkpt lat="46.64509" lon="5.91764">
        <ele>752.2</ele>
        <time>2019-05-22T06:54:21.000Z</time>
      </trkpt>
      <trkpt lat="46.645" lon="5.91786">
        <ele>752.33</ele>
        <time>2019-05-22T06:54:45.000Z</time>
      </trkpt>
      <trkpt lat="46.64488" lon="5.91809">
        <ele>752.34</ele>
        <time>2019-05-22T06:54:59.000Z</time>
      </trkpt>
      <trkpt lat="46.64476" lon="5.91829">
        <ele>750.42</ele>
        <time>2019-05-22T06:55:15.000Z</time>
      </trkpt>
      <trkpt lat="46.6449" lon="5.91848">
        <ele>753.12</ele>
        <time>2019-05-22T06:55:49.000Z</time>
      </trkpt>
      <trkpt lat="46.64485" lon="5.91874">
        <ele>752.42</ele>
        <time>2019-05-22T06:56:05.000Z</time>
      </trkpt>
      <trkpt lat="46.64494" lon="5.91897">
        <ele>756.41</ele>
        <time>2019-05-22T06:56:29.000Z</time>
      </trkpt>
      <trkpt lat="46.6449" lon="5.91924">
        <ele>759.49</ele>
        <time>2019-05-22T06:56:54.000Z</time>
      </trkpt>
      <trkpt lat="46.64477" lon="5.91943">
        <ele>767.37</ele>
        <time>2019-05-22T06:57:08.000Z</time>
      </trkpt>
      <trkpt lat="46.64459" lon="5.91953">
        <ele>771.33</ele>
        <time>2019-05-22T06:57:26.000Z</time>
      </trkpt>
      <trkpt lat="46.64442" lon="5.9194">
        <ele>777.11</ele>
        <time>2019-05-22T06:57:47.000Z</time>
      </trkpt>
      <trkpt lat="46.64426" lon="5.91927">
        <ele>778.15</ele>
        <time>2019-05-22T06:57:57.000Z</time>
      </trkpt>
      <trkpt lat="46.6441" lon="5.91913">
        <ele>772.75</ele>
        <time>2019-05-22T06:58:12.000Z</time>
      </trkpt>
      <trkpt lat="46.64396" lon="5.91894">
        <ele>772.12</ele>
        <time>2019-05-22T06:58:23.000Z</time>
      </trkpt>
      <trkpt lat="46.6438" lon="5.9188">
        <ele>773.78</ele>
        <time>2019-05-22T06:58:38.000Z</time>
      </trkpt>
      <trkpt lat="46.64363" lon="5.91869">
        <ele>773.72</ele>
        <time>2019-05-22T06:58:52.000Z</time>
      </trkpt>
      <trkpt lat="46.64348" lon="5.91851">
        <ele>777.01</ele>
        <time>2019-05-22T06:59:11.000Z</time>
      </trkpt>
      <trkpt lat="46.64331" lon="5.91843">
        <ele>773.3</ele>
        <time>2019-05-22T06:59:23.000Z</time>
      </trkpt>
      <trkpt lat="46.64312" lon="5.91836">
        <ele>771.52</ele>
        <time>2019-05-22T06:59:35.000Z</time>
      </trkpt>
      <trkpt lat="46.643" lon="5.91816">
        <ele>774.62</ele>
        <time>2019-05-22T06:59:46.000Z</time>
      </trkpt>
      <trkpt lat="46.64282" lon="5.91811">
        <ele>767.24</ele>
        <time>2019-05-22T07:00:06.000Z</time>
      </trkpt>
      <trkpt lat="46.64266" lon="5.91801">
        <ele>764.42</ele>
        <time>2019-05-22T07:00:18.000Z</time>
      </trkpt>
      <trkpt lat="46.64255" lon="5.91778">
        <ele>763.74</ele>
        <time>2019-05-22T07:00:30.000Z</time>
      </trkpt>
      <trkpt lat="46.64244" lon="5.91755">
        <ele>763.44</ele>
        <time>2019-05-22T07:01:29.000Z</time>
      </trkpt>
      <trkpt lat="46.64231" lon="5.91735">
        <ele>762.69</ele>
        <time>2019-05-22T07:01:42.000Z</time>
      </trkpt>
      <trkpt lat="46.64216" lon="5.91718">
        <ele>758.2</ele>
        <time>2019-05-22T07:01:57.000Z</time>
      </trkpt>
      <trkpt lat="46.64209" lon="5.91692">
        <ele>762.38</ele>
        <time>2019-05-22T07:02:09.000Z</time>
      </trkpt>
      <trkpt lat="46.64192" lon="5.91681">
        <ele>757.13</ele>
        <time>2019-05-22T07:02:22.000Z</time>
      </trkpt>
      <trkpt lat="46.64173" lon="5.91677">
        <ele>755.89</ele>
        <time>2019-05-22T07:02:40.000Z</time>
      </trkpt>
      <trkpt lat="46.6416" lon="5.91658">
        <ele>760.48</ele>
        <time>2019-05-22T07:02:53.000Z</time>
      </trkpt>
      <trkpt lat="46.64144" lon="5.91643">
        <ele>760.84</ele>
        <time>2019-05-22T07:03:07.000Z</time>
      </trkpt>
      <trkpt lat="46.64128" lon="5.91629">
        <ele>762.03</ele>
        <time>2019-05-22T07:03:20.000Z</time>
      </trkpt>
      <trkpt lat="46.64112" lon="5.91614">
        <ele>762.63</ele>
        <time>2019-05-22T07:03:34.000Z</time>
      </trkpt>
      <trkpt lat="46.64099" lon="5.91595">
        <ele>764.94</ele>
        <time>2019-05-22T07:03:48.000Z</time>
      </trkpt>
      <trkpt lat="46.64082" lon="5.91584">
        <ele>767.34</ele>
        <time>2019-05-22T07:04:03.000Z</time>
      </trkpt>
      <trkpt lat="46.64069" lon="5.91565">
        <ele>765.81</ele>
        <time>2019-05-22T07:04:15.000Z</time>
      </trkpt>
      <trkpt lat="46.64052" lon="5.91552">
        <ele>768.59</ele>
        <time>2019-05-22T07:04:30.000Z</time>
      </trkpt>
      <trkpt lat="46.64038" lon="5.91535">
        <ele>768.65</ele>
        <time>2019-05-22T07:04:42.000Z</time>
      </trkpt>
      <trkpt lat="46.64027" lon="5.91514">
        <ele>764.47</ele>
        <time>2019-05-22T07:04:57.000Z</time>
      </trkpt>
      <trkpt lat="46.64011" lon="5.915">
        <ele>762.97</ele>
        <time>2019-05-22T07:05:09.000Z</time>
      </trkpt>
      <trkpt lat="46.63996" lon="5.91483">
        <ele>766.36</ele>
        <time>2019-05-22T07:05:33.000Z</time>
      </trkpt>
      <trkpt lat="46.63986" lon="5.9146">
        <ele>770.08</ele>
        <time>2019-05-22T07:05:49.000Z</time>
      </trkpt>
      <trkpt lat="46.6397" lon="5.91446">
        <ele>769.3</ele>
        <time>2019-05-22T07:06:02.000Z</time>
      </trkpt>
      <trkpt lat="46.63961" lon="5.91421">
        <ele>770.22</ele>
        <time>2019-05-22T07:06:18.000Z</time>
      </trkpt>
      <trkpt lat="46.63946" lon="5.91405">
        <ele>774.41</ele>
        <time>2019-05-22T07:06:32.000Z</time>
      </trkpt>
      <trkpt lat="46.63932" lon="5.9139">
        <ele>774.42</ele>
        <time>2019-05-22T07:06:45.000Z</time>
      </trkpt>
      <trkpt lat="46.63923" lon="5.91366">
        <ele>778.06</ele>
        <time>2019-05-22T07:07:04.000Z</time>
      </trkpt>
      <trkpt lat="46.63907" lon="5.91351">
        <ele>783.6</ele>
        <time>2019-05-22T07:07:15.000Z</time>
      </trkpt>
      <trkpt lat="46.6389" lon="5.91339">
        <ele>781.14</ele>
        <time>2019-05-22T07:07:29.000Z</time>
      </trkpt>
      <trkpt lat="46.63877" lon="5.91317">
        <ele>780.44</ele>
        <time>2019-05-22T07:08:09.000Z</time>
      </trkpt>
      <trkpt lat="46.63863" lon="5.913">
        <ele>777.03</ele>
        <time>2019-05-22T07:08:18.000Z</time>
      </trkpt>
      <trkpt lat="46.63846" lon="5.91288">
        <ele>777.75</ele>
        <time>2019-05-22T07:08:29.000Z</time>
      </trkpt>
      <trkpt lat="46.6383" lon="5.91276">
        <ele>782.99</ele>
        <time>2019-05-22T07:08:46.000Z</time>
      </trkpt>
      <trkpt lat="46.63812" lon="5.91283">
        <ele>786.62</ele>
        <time>2019-05-22T07:09:02.000Z</time>
      </trkpt>
      <trkpt lat="46.63794" lon="5.91284">
        <ele>784.42</ele>
        <time>2019-05-22T07:09:18.000Z</time>
      </trkpt>
      <trkpt lat="46.63775" lon="5.91284">
        <ele>785.68</ele>
        <time>2019-05-22T07:09:35.000Z</time>
      </trkpt>
      <trkpt lat="46.63759" lon="5.91298">
        <ele>783.82</ele>
        <time>2019-05-22T07:09:51.000Z</time>
      </trkpt>
      <trkpt lat="46.63774" lon="5.91313">
        <ele>788.81</ele>
        <time>2019-05-22T07:10:13.000Z</time>
      </trkpt>
      <trkpt lat="46.63757" lon="5.91303">
        <ele>785.74</ele>
        <time>2019-05-22T07:10:25.000Z</time>
      </trkpt>
      <trkpt lat="46.63744" lon="5.91321">
        <ele>787.1</ele>
        <time>2019-05-22T07:11:51.000Z</time>
      </trkpt>
      <trkpt lat="46.63731" lon="5.91341">
        <ele>789.42</ele>
        <time>2019-05-22T07:12:01.000Z</time>
      </trkpt>
      <trkpt lat="46.63722" lon="5.91366">
        <ele>791.78</ele>
        <time>2019-05-22T07:12:14.000Z</time>
      </trkpt>
      <trkpt lat="46.63712" lon="5.91388">
        <ele>790.42</ele>
        <time>2019-05-22T07:12:32.000Z</time>
      </trkpt>
      <trkpt lat="46.63694" lon="5.91402">
        <ele>791.5</ele>
        <time>2019-05-22T07:12:52.000Z</time>
      </trkpt>
      <trkpt lat="46.63677" lon="5.91415">
        <ele>794.4</ele>
        <time>2019-05-22T07:13:06.000Z</time>
      </trkpt>
      <trkpt lat="46.63662" lon="5.91431">
        <ele>792.38</ele>
        <time>2019-05-22T07:13:20.000Z</time>
      </trkpt>
      <trkpt lat="46.63645" lon="5.9144">
        <ele>796.36</ele>
        <time>2019-05-22T07:13:33.000Z</time>
      </trkpt>
      <trkpt lat="46.63629" lon="5.91426">
        <ele>792.79</ele>
        <time>2019-05-22T07:13:47.000Z</time>
      </trkpt>
      <trkpt lat="46.63611" lon="5.9143">
        <ele>794.68</ele>
        <time>2019-05-22T07:14:00.000Z</time>
      </trkpt>
      <trkpt lat="46.63593" lon="5.91442">
        <ele>794</ele>
        <time>2019-05-22T07:14:56.000Z</time>
      </trkpt>
      <trkpt lat="46.63576" lon="5.91457">
        <ele>785.11</ele>
        <time>2019-05-22T07:15:09.000Z</time>
      </trkpt>
      <trkpt lat="46.63561" lon="5.91472">
        <ele>786.4</ele>
        <time>2019-05-22T07:15:22.000Z</time>
      </trkpt>
      <trkpt lat="46.63544" lon="5.91485">
        <ele>787.18</ele>
        <time>2019-05-22T07:15:38.000Z</time>
      </trkpt>
      <trkpt lat="46.63529" lon="5.91497">
        <ele>786.21</ele>
        <time>2019-05-22T07:15:54.000Z</time>
      </trkpt>
      <trkpt lat="46.63516" lon="5.91517">
        <ele>782.1</ele>
        <time>2019-05-22T07:16:07.000Z</time>
      </trkpt>
      <trkpt lat="46.63511" lon="5.91542">
        <ele>784.68</ele>
        <time>2019-05-22T07:16:24.000Z</time>
      </trkpt>
      <trkpt lat="46.63498" lon="5.91564">
        <ele>790.82</ele>
        <time>2019-05-22T07:16:36.000Z</time>
      </trkpt>
      <trkpt lat="46.63486" lon="5.91584">
        <ele>789.75</ele>
        <time>2019-05-22T07:16:49.000Z</time>
      </trkpt>
      <trkpt lat="46.63474" lon="5.91605">
        <ele>783.52</ele>
        <time>2019-05-22T07:17:01.000Z</time>
      </trkpt>
      <trkpt lat="46.63461" lon="5.91626">
        <ele>783.54</ele>
        <time>2019-05-22T07:17:16.000Z</time>
      </trkpt>
      <trkpt lat="46.63449" lon="5.91647">
        <ele>781.68</ele>
        <time>2019-05-22T07:17:26.000Z</time>
      </trkpt>
      <trkpt lat="46.63435" lon="5.91665">
        <ele>784.03</ele>
        <time>2019-05-22T07:17:39.000Z</time>
      </trkpt>
      <trkpt lat="46.63422" lon="5.91686">
        <ele>783.42</ele>
        <time>2019-05-22T07:17:52.000Z</time>
      </trkpt>
      <trkpt lat="46.63414" lon="5.9171">
        <ele>783.02</ele>
        <time>2019-05-22T07:18:04.000Z</time>
      </trkpt>
      <trkpt lat="46.63403" lon="5.91734">
        <ele>781.94</ele>
        <time>2019-05-22T07:18:18.000Z</time>
      </trkpt>
      <trkpt lat="46.63391" lon="5.91754">
        <ele>782.41</ele>
        <time>2019-05-22T07:18:29.000Z</time>
      </trkpt>
      <trkpt lat="46.63382" lon="5.91778">
        <ele>779.01</ele>
        <time>2019-05-22T07:18:45.000Z</time>
      </trkpt>
      <trkpt lat="46.6337" lon="5.91799">
        <ele>780.12</ele>
        <time>2019-05-22T07:18:58.000Z</time>
      </trkpt>
      <trkpt lat="46.63351" lon="5.91797">
        <ele>777.46</ele>
        <time>2019-05-22T07:19:12.000Z</time>
      </trkpt>
      <trkpt lat="46.63334" lon="5.91808">
        <ele>776.82</ele>
        <time>2019-05-22T07:19:34.000Z</time>
      </trkpt>
      <trkpt lat="46.63318" lon="5.91821">
        <ele>778.79</ele>
        <time>2019-05-22T07:19:47.000Z</time>
      </trkpt>
      <trkpt lat="46.63301" lon="5.9183">
        <ele>778.91</ele>
        <time>2019-05-22T07:20:03.000Z</time>
      </trkpt>
      <trkpt lat="46.63284" lon="5.91819">
        <ele>781.61</ele>
        <time>2019-05-22T07:20:16.000Z</time>
      </trkpt>
      <trkpt lat="46.63267" lon="5.91809">
        <ele>778.13</ele>
        <time>2019-05-22T07:20:29.000Z</time>
      </trkpt>
      <trkpt lat="46.6328" lon="5.91829">
        <ele>777.36</ele>
        <time>2019-05-22T07:21:22.000Z</time>
      </trkpt>
      <trkpt lat="46.63292" lon="5.91849">
        <ele>776.73</ele>
        <time>2019-05-22T07:21:34.000Z</time>
      </trkpt>
      <trkpt lat="46.63305" lon="5.91868">
        <ele>776.48</ele>
        <time>2019-05-22T07:21:51.000Z</time>
      </trkpt>
      <trkpt lat="46.63311" lon="5.91893">
        <ele>778.5</ele>
        <time>2019-05-22T07:22:03.000Z</time>
      </trkpt>
      <trkpt lat="46.63319" lon="5.91918">
        <ele>774.84</ele>
        <time>2019-05-22T07:22:15.000Z</time>
      </trkpt>
      <trkpt lat="46.63326" lon="5.91943">
        <ele>779.8</ele>
        <time>2019-05-22T07:22:27.000Z</time>
      </trkpt>
      <trkpt lat="46.63345" lon="5.91948">
        <ele>778.4</ele>
        <time>2019-05-22T07:22:39.000Z</time>
      </trkpt>
      <trkpt lat="46.63364" lon="5.91947">
        <ele>778.42</ele>
        <time>2019-05-22T07:22:51.000Z</time>
      </trkpt>
      <trkpt lat="46.63383" lon="5.91946">
        <ele>784.17</ele>
        <time>2019-05-22T07:23:04.000Z</time>
      </trkpt>
      <trkpt lat="46.63392" lon="5.91969">
        <ele>783.22</ele>
        <time>2019-05-22T07:23:17.000Z</time>
      </trkpt>
      <trkpt lat="46.6339" lon="5.91996">
        <ele>781.4</ele>
        <time>2019-05-22T07:23:29.000Z</time>
      </trkpt>
      <trkpt lat="46.63392" lon="5.92023">
        <ele>783.12</ele>
        <time>2019-05-22T07:23:41.000Z</time>
      </trkpt>
      <trkpt lat="46.63401" lon="5.92047">
        <ele>784.2</ele>
        <time>2019-05-22T07:23:52.000Z</time>
      </trkpt>
      <trkpt lat="46.63406" lon="5.92073">
        <ele>775.72</ele>
        <time>2019-05-22T07:24:05.000Z</time>
      </trkpt>
      <trkpt lat="46.6342" lon="5.92092">
        <ele>770.81</ele>
        <time>2019-05-22T07:24:17.000Z</time>
      </trkpt>
      <trkpt lat="46.63435" lon="5.92106">
        <ele>768.47</ele>
        <time>2019-05-22T07:24:28.000Z</time>
      </trkpt>
      <trkpt lat="46.63445" lon="5.92131">
        <ele>771.32</ele>
        <time>2019-05-22T07:24:39.000Z</time>
      </trkpt>
      <trkpt lat="46.63452" lon="5.92158">
        <ele>767.42</ele>
        <time>2019-05-22T07:24:50.000Z</time>
      </trkpt>
      <trkpt lat="46.63464" lon="5.92178">
        <ele>770.62</ele>
        <time>2019-05-22T07:25:02.000Z</time>
      </trkpt>
      <trkpt lat="46.63477" lon="5.92198">
        <ele>764.34</ele>
        <time>2019-05-22T07:25:14.000Z</time>
      </trkpt>
      <trkpt lat="46.63484" lon="5.92223">
        <ele>760.72</ele>
        <time>2019-05-22T07:25:27.000Z</time>
      </trkpt>
      <trkpt lat="46.63488" lon="5.92251">
        <ele>765.99</ele>
        <time>2019-05-22T07:25:40.000Z</time>
      </trkpt>
      <trkpt lat="46.63471" lon="5.92262">
        <ele>778.39</ele>
        <time>2019-05-22T07:26:04.000Z</time>
      </trkpt>
      <trkpt lat="46.63453" lon="5.92265">
        <ele>790.08</ele>
        <time>2019-05-22T07:26:35.000Z</time>
      </trkpt>
      <trkpt lat="46.63434" lon="5.92271">
        <ele>796.6</ele>
        <time>2019-05-22T07:27:01.000Z</time>
      </trkpt>
      <trkpt lat="46.63415" lon="5.92269">
        <ele>792.74</ele>
        <time>2019-05-22T07:27:21.000Z</time>
      </trkpt>
      <trkpt lat="46.63427" lon="5.92289">
        <ele>800.36</ele>
        <time>2019-05-22T07:27:37.000Z</time>
      </trkpt>
      <trkpt lat="46.63433" lon="5.92314">
        <ele>806.73</ele>
        <time>2019-05-22T07:27:57.000Z</time>
      </trkpt>
      <trkpt lat="46.63415" lon="5.92315">
        <ele>819.95</ele>
        <time>2019-05-22T07:28:44.000Z</time>
      </trkpt>
      <trkpt lat="46.63398" lon="5.92308">
        <ele>842.02</ele>
        <time>2019-05-22T07:29:37.000Z</time>
      </trkpt>
      <trkpt lat="46.63382" lon="5.92322">
        <ele>841.05</ele>
        <time>2019-05-22T07:29:58.000Z</time>
      </trkpt>
      <trkpt lat="46.63365" lon="5.92312">
        <ele>845.5</ele>
        <time>2019-05-22T07:31:38.000Z</time>
      </trkpt>
      <trkpt lat="46.63347" lon="5.92308">
        <ele>844.35</ele>
        <time>2019-05-22T07:31:58.000Z</time>
      </trkpt>
      <trkpt lat="46.63332" lon="5.92293">
        <ele>864.17</ele>
        <time>2019-05-22T07:32:39.000Z</time>
      </trkpt>
      <trkpt lat="46.63316" lon="5.92306">
        <ele>859.26</ele>
        <time>2019-05-22T07:33:12.000Z</time>
      </trkpt>
      <trkpt lat="46.63314" lon="5.92334">
        <ele>868.25</ele>
        <time>2019-05-22T07:34:12.000Z</time>
      </trkpt>
      <trkpt lat="46.63305" lon="5.92311">
        <ele>878.03</ele>
        <time>2019-05-22T07:34:45.000Z</time>
      </trkpt>
      <trkpt lat="46.63299" lon="5.92285">
        <ele>876.32</ele>
        <time>2019-05-22T07:35:09.000Z</time>
      </trkpt>
      <trkpt lat="46.63282" lon="5.9227">
        <ele>874.24</ele>
        <time>2019-05-22T07:35:38.000Z</time>
      </trkpt>
      <trkpt lat="46.63265" lon="5.92262">
        <ele>880.65</ele>
        <time>2019-05-22T07:35:54.000Z</time>
      </trkpt>
      <trkpt lat="46.6326" lon="5.92235">
        <ele>890.72</ele>
        <time>2019-05-22T07:36:41.000Z</time>
      </trkpt>
      <trkpt lat="46.63242" lon="5.92229">
        <ele>891.94</ele>
        <time>2019-05-22T07:37:08.000Z</time>
      </trkpt>
      <trkpt lat="46.63225" lon="5.92215">
        <ele>892.35</ele>
        <time>2019-05-22T07:37:21.000Z</time>
      </trkpt>
      <trkpt lat="46.63212" lon="5.92196">
        <ele>893.4</ele>
        <time>2019-05-22T07:38:02.000Z</time>
      </trkpt>
      <trkpt lat="46.63201" lon="5.92175">
        <ele>891.62</ele>
        <time>2019-05-22T07:39:43.000Z</time>
      </trkpt>
      <trkpt lat="46.63196" lon="5.92149">
        <ele>893.45</ele>
        <time>2019-05-22T07:40:09.000Z</time>
      </trkpt>
      <trkpt lat="46.63194" lon="5.92122">
        <ele>898.34</ele>
        <time>2019-05-22T07:40:33.000Z</time>
      </trkpt>
      <trkpt lat="46.63179" lon="5.92108">
        <ele>898.66</ele>
        <time>2019-05-22T07:41:12.000Z</time>
      </trkpt>
      <trkpt lat="46.63164" lon="5.92093">
        <ele>895.46</ele>
        <time>2019-05-22T07:41:26.000Z</time>
      </trkpt>
      <trkpt lat="46.63153" lon="5.92071">
        <ele>893.18</ele>
        <time>2019-05-22T07:42:09.000Z</time>
      </trkpt>
      <trkpt lat="46.63135" lon="5.92064">
        <ele>898.5</ele>
        <time>2019-05-22T07:44:07.000Z</time>
      </trkpt>
      <trkpt lat="46.63122" lon="5.92044">
        <ele>894.92</ele>
        <time>2019-05-22T07:44:27.000Z</time>
      </trkpt>
      <trkpt lat="46.6311" lon="5.92024">
        <ele>891.8</ele>
        <time>2019-05-22T07:44:55.000Z</time>
      </trkpt>
      <trkpt lat="46.63105" lon="5.91997">
        <ele>895.69</ele>
        <time>2019-05-22T07:45:11.000Z</time>
      </trkpt>
      <trkpt lat="46.6309" lon="5.9198">
        <ele>899.38</ele>
        <time>2019-05-22T07:46:31.000Z</time>
      </trkpt>
      <trkpt lat="46.63077" lon="5.91962">
        <ele>903.32</ele>
        <time>2019-05-22T07:46:52.000Z</time>
      </trkpt>
      <trkpt lat="46.6306" lon="5.9195">
        <ele>908.49</ele>
        <time>2019-05-22T07:47:26.000Z</time>
      </trkpt>
      <trkpt lat="46.63043" lon="5.9194">
        <ele>910.35</ele>
        <time>2019-05-22T07:47:41.000Z</time>
      </trkpt>
      <trkpt lat="46.63028" lon="5.91923">
        <ele>909.09</ele>
        <time>2019-05-22T07:48:11.000Z</time>
      </trkpt>
      <trkpt lat="46.63019" lon="5.919">
        <ele>916.7</ele>
        <time>2019-05-22T07:48:38.000Z</time>
      </trkpt>
      <trkpt lat="46.63016" lon="5.91874">
        <ele>918.42</ele>
        <time>2019-05-22T07:49:22.000Z</time>
      </trkpt>
      <trkpt lat="46.63014" lon="5.91848">
        <ele>914.68</ele>
        <time>2019-05-22T07:50:14.000Z</time>
      </trkpt>
      <trkpt lat="46.63" lon="5.91829">
        <ele>918.56</ele>
        <time>2019-05-22T07:51:38.000Z</time>
      </trkpt>
      <trkpt lat="46.62989" lon="5.91808">
        <ele>921.41</ele>
        <time>2019-05-22T07:51:59.000Z</time>
      </trkpt>
      <trkpt lat="46.62975" lon="5.91789">
        <ele>919.49</ele>
        <time>2019-05-22T07:52:14.000Z</time>
      </trkpt>
      <trkpt lat="46.62964" lon="5.91768">
        <ele>914.48</ele>
        <time>2019-05-22T07:52:32.000Z</time>
      </trkpt>
      <trkpt lat="46.62951" lon="5.91748">
        <ele>919.38</ele>
        <time>2019-05-22T07:52:47.000Z</time>
      </trkpt>
      <trkpt lat="46.62939" lon="5.91726">
        <ele>920.39</ele>
        <time>2019-05-22T07:53:01.000Z</time>
      </trkpt>
      <trkpt lat="46.62924" lon="5.91709">
        <ele>923.3</ele>
        <time>2019-05-22T07:53:16.000Z</time>
      </trkpt>
      <trkpt lat="46.62912" lon="5.91689">
        <ele>924.12</ele>
        <time>2019-05-22T07:53:32.000Z</time>
      </trkpt>
      <trkpt lat="46.62895" lon="5.91681">
        <ele>926.14</ele>
        <time>2019-05-22T07:53:47.000Z</time>
      </trkpt>
      <trkpt lat="46.62887" lon="5.91656">
        <ele>928.3</ele>
        <time>2019-05-22T07:54:07.000Z</time>
      </trkpt>
      <trkpt lat="46.62868" lon="5.91654">
        <ele>926.18</ele>
        <time>2019-05-22T07:54:19.000Z</time>
      </trkpt>
      <trkpt lat="46.62853" lon="5.91638">
        <ele>927.14</ele>
        <time>2019-05-22T07:54:34.000Z</time>
      </trkpt>
      <trkpt lat="46.62841" lon="5.91617">
        <ele>927.11</ele>
        <time>2019-05-22T07:54:53.000Z</time>
      </trkpt>
      <trkpt lat="46.62828" lon="5.91597">
        <ele>929.39</ele>
        <time>2019-05-22T07:55:18.000Z</time>
      </trkpt>
      <trkpt lat="46.62816" lon="5.91577">
        <ele>922.15</ele>
        <time>2019-05-22T07:55:30.000Z</time>
      </trkpt>
      <trkpt lat="46.62807" lon="5.91553">
        <ele>925.14</ele>
        <time>2019-05-22T07:55:42.000Z</time>
      </trkpt>
      <trkpt lat="46.62793" lon="5.91537">
        <ele>924.48</ele>
        <time>2019-05-22T07:56:08.000Z</time>
      </trkpt>
      <trkpt lat="46.62786" lon="5.91512">
        <ele>924.29</ele>
        <time>2019-05-22T07:56:36.000Z</time>
      </trkpt>
      <trkpt lat="46.62769" lon="5.91503">
        <ele>920.98</ele>
        <time>2019-05-22T07:56:48.000Z</time>
      </trkpt>
      <trkpt lat="46.6275" lon="5.91499">
        <ele>930.09</ele>
        <time>2019-05-22T07:57:20.000Z</time>
      </trkpt>
      <trkpt lat="46.62735" lon="5.91514">
        <ele>933.44</ele>
        <time>2019-05-22T07:57:41.000Z</time>
      </trkpt>
      <trkpt lat="46.62716" lon="5.91512">
        <ele>930.7</ele>
        <time>2019-05-22T07:58:11.000Z</time>
      </trkpt>
      <trkpt lat="46.62698" lon="5.91515">
        <ele>939.93</ele>
        <time>2019-05-22T07:58:37.000Z</time>
      </trkpt>
      <trkpt lat="46.62694" lon="5.91487">
        <ele>945.57</ele>
        <time>2019-05-22T07:58:52.000Z</time>
      </trkpt>
      <trkpt lat="46.62679" lon="5.91471">
        <ele>945.74</ele>
        <time>2019-05-22T07:59:12.000Z</time>
      </trkpt>
      <trkpt lat="46.62661" lon="5.91464">
        <ele>942.5</ele>
        <time>2019-05-22T07:59:24.000Z</time>
      </trkpt>
      <trkpt lat="46.62646" lon="5.9145">
        <ele>939.62</ele>
        <time>2019-05-22T07:59:40.000Z</time>
      </trkpt>
      <trkpt lat="46.62627" lon="5.91443">
        <ele>935.67</ele>
        <time>2019-05-22T07:59:57.000Z</time>
      </trkpt>
      <trkpt lat="46.62611" lon="5.9143">
        <ele>936.09</ele>
        <time>2019-05-22T08:00:16.000Z</time>
      </trkpt>
      <trkpt lat="46.62618" lon="5.91405">
        <ele>927.53</ele>
        <time>2019-05-22T08:00:42.000Z</time>
      </trkpt>
      <trkpt lat="46.62623" lon="5.9138">
        <ele>931.42</ele>
        <time>2019-05-22T08:00:55.000Z</time>
      </trkpt>
      <trkpt lat="46.62613" lon="5.91355">
        <ele>930.53</ele>
        <time>2019-05-22T08:01:10.000Z</time>
      </trkpt>
      <trkpt lat="46.62618" lon="5.91329">
        <ele>925.4</ele>
        <time>2019-05-22T08:01:34.000Z</time>
      </trkpt>
      <trkpt lat="46.62629" lon="5.91309">
        <ele>920.42</ele>
        <time>2019-05-22T08:04:11.000Z</time>
      </trkpt>
      <trkpt lat="46.62611" lon="5.91302">
        <ele>913.72</ele>
        <time>2019-05-22T08:07:52.000Z</time>
      </trkpt>
      <trkpt lat="46.62593" lon="5.91297">
        <ele>913.5</ele>
        <time>2019-05-22T08:08:11.000Z</time>
      </trkpt>
      <trkpt lat="46.62579" lon="5.91278">
        <ele>914.47</ele>
        <time>2019-05-22T08:08:25.000Z</time>
      </trkpt>
      <trkpt lat="46.62568" lon="5.91257">
        <ele>915.11</ele>
        <time>2019-05-22T08:08:44.000Z</time>
      </trkpt>
      <trkpt lat="46.62556" lon="5.91237">
        <ele>915.4</ele>
        <time>2019-05-22T08:09:07.000Z</time>
      </trkpt>
      <trkpt lat="46.62545" lon="5.91216">
        <ele>919.7</ele>
        <time>2019-05-22T08:09:27.000Z</time>
      </trkpt>
      <trkpt lat="46.62535" lon="5.91192">
        <ele>923.62</ele>
        <time>2019-05-22T08:09:55.000Z</time>
      </trkpt>
      <trkpt lat="46.62519" lon="5.91179">
        <ele>922.52</ele>
        <time>2019-05-22T08:10:10.000Z</time>
      </trkpt>
      <trkpt lat="46.62509" lon="5.91155">
        <ele>925.02</ele>
        <time>2019-05-22T08:10:33.000Z</time>
      </trkpt>
      <trkpt lat="46.62493" lon="5.91142">
        <ele>921.39</ele>
        <time>2019-05-22T08:10:47.000Z</time>
      </trkpt>
      <trkpt lat="46.62483" lon="5.91121">
        <ele>926.35</ele>
        <time>2019-05-22T08:11:05.000Z</time>
      </trkpt>
      <trkpt lat="46.62468" lon="5.91106">
        <ele>923.89</ele>
        <time>2019-05-22T08:11:16.000Z</time>
      </trkpt>
      <trkpt lat="46.62455" lon="5.91087">
        <ele>922.24</ele>
        <time>2019-05-22T08:11:39.000Z</time>
      </trkpt>
      <trkpt lat="46.62436" lon="5.91079">
        <ele>929.69</ele>
        <time>2019-05-22T08:12:05.000Z</time>
      </trkpt>
      <trkpt lat="46.62421" lon="5.91064">
        <ele>929.8</ele>
        <time>2019-05-22T08:12:25.000Z</time>
      </trkpt>
      <trkpt lat="46.62409" lon="5.91043">
        <ele>926.37</ele>
        <time>2019-05-22T08:12:47.000Z</time>
      </trkpt>
      <trkpt lat="46.62395" lon="5.91028">
        <ele>929.25</ele>
        <time>2019-05-22T08:13:12.000Z</time>
      </trkpt>
      <trkpt lat="46.62378" lon="5.91015">
        <ele>927.71</ele>
        <time>2019-05-22T08:13:28.000Z</time>
      </trkpt>
      <trkpt lat="46.62367" lon="5.90992">
        <ele>932.6</ele>
        <time>2019-05-22T08:13:48.000Z</time>
      </trkpt>
      <trkpt lat="46.62351" lon="5.90977">
        <ele>927.61</ele>
        <time>2019-05-22T08:14:24.000Z</time>
      </trkpt>
      <trkpt lat="46.62332" lon="5.90985">
        <ele>933.62</ele>
        <time>2019-05-22T08:30:28.000Z</time>
      </trkpt>
      <trkpt lat="46.6235" lon="5.90993">
        <ele>930.99</ele>
        <time>2019-05-22T08:31:13.000Z</time>
      </trkpt>
      <trkpt lat="46.62332" lon="5.90987">
        <ele>934.06</ele>
        <time>2019-05-22T08:31:43.000Z</time>
      </trkpt>
      <trkpt lat="46.62313" lon="5.90987">
        <ele>933.06</ele>
        <time>2019-05-22T08:32:31.000Z</time>
      </trkpt>
      <trkpt lat="46.62296" lon="5.90975">
        <ele>930.76</ele>
        <time>2019-05-22T08:32:49.000Z</time>
      </trkpt>
      <trkpt lat="46.62279" lon="5.90965">
        <ele>934.59</ele>
        <time>2019-05-22T08:33:05.000Z</time>
      </trkpt>
      <trkpt lat="46.62263" lon="5.9095">
        <ele>931.22</ele>
        <time>2019-05-22T08:33:19.000Z</time>
      </trkpt>
      <trkpt lat="46.62245" lon="5.90956">
        <ele>930.75</ele>
        <time>2019-05-22T08:33:44.000Z</time>
      </trkpt>
      <trkpt lat="46.62231" lon="5.90938">
        <ele>929.73</ele>
        <time>2019-05-22T08:34:12.000Z</time>
      </trkpt>
      <trkpt lat="46.62226" lon="5.90912">
        <ele>922.82</ele>
        <time>2019-05-22T08:34:27.000Z</time>
      </trkpt>
      <trkpt lat="46.62223" lon="5.90885">
        <ele>925.6</ele>
        <time>2019-05-22T08:34:42.000Z</time>
      </trkpt>
      <trkpt lat="46.62204" lon="5.90879">
        <ele>926.62</ele>
        <time>2019-05-22T08:34:52.000Z</time>
      </trkpt>
      <trkpt lat="46.62186" lon="5.90883">
        <ele>928.35</ele>
        <time>2019-05-22T08:35:07.000Z</time>
      </trkpt>
      <trkpt lat="46.62167" lon="5.9088">
        <ele>927.73</ele>
        <time>2019-05-22T08:35:20.000Z</time>
      </trkpt>
      <trkpt lat="46.62149" lon="5.90874">
        <ele>928.51</ele>
        <time>2019-05-22T08:35:37.000Z</time>
      </trkpt>
      <trkpt lat="46.6213" lon="5.90883">
        <ele>929.7</ele>
        <time>2019-05-22T08:35:53.000Z</time>
      </trkpt>
      <trkpt lat="46.62116" lon="5.90901">
        <ele>924.83</ele>
        <time>2019-05-22T08:36:03.000Z</time>
      </trkpt>
      <trkpt lat="46.62099" lon="5.9091">
        <ele>930.3</ele>
        <time>2019-05-22T08:36:27.000Z</time>
      </trkpt>
      <trkpt lat="46.62084" lon="5.90926">
        <ele>930.5</ele>
        <time>2019-05-22T08:36:40.000Z</time>
      </trkpt>
      <trkpt lat="46.62068" lon="5.9094">
        <ele>932.01</ele>
        <time>2019-05-22T08:36:57.000Z</time>
      </trkpt>
      <trkpt lat="46.62053" lon="5.90954">
        <ele>939.73</ele>
        <time>2019-05-22T08:37:17.000Z</time>
      </trkpt>
      <trkpt lat="46.62034" lon="5.90957">
        <ele>936.32</ele>
        <time>2019-05-22T08:37:29.000Z</time>
      </trkpt>
      <trkpt lat="46.62016" lon="5.90967">
        <ele>934.5</ele>
        <time>2019-05-22T08:37:43.000Z</time>
      </trkpt>
      <trkpt lat="46.61998" lon="5.9097">
        <ele>936.36</ele>
        <time>2019-05-22T08:38:06.000Z</time>
      </trkpt>
      <trkpt lat="46.61984" lon="5.90953">
        <ele>938.72</ele>
        <time>2019-05-22T08:38:25.000Z</time>
      </trkpt>
      <trkpt lat="46.61994" lon="5.9093">
        <ele>947.41</ele>
        <time>2019-05-22T08:38:58.000Z</time>
      </trkpt>
      <trkpt lat="46.62002" lon="5.90906">
        <ele>947.12</ele>
        <time>2019-05-22T08:39:14.000Z</time>
      </trkpt>
      <trkpt lat="46.62017" lon="5.90889">
        <ele>948.98</ele>
        <time>2019-05-22T08:39:30.000Z</time>
      </trkpt>
      <trkpt lat="46.62033" lon="5.90873">
        <ele>950.81</ele>
        <time>2019-05-22T08:39:47.000Z</time>
      </trkpt>
      <trkpt lat="46.62042" lon="5.9085">
        <ele>947.17</ele>
        <time>2019-05-22T08:39:59.000Z</time>
      </trkpt>
      <trkpt lat="46.62051" lon="5.90826">
        <ele>950.2</ele>
        <time>2019-05-22T08:40:13.000Z</time>
      </trkpt>
      <trkpt lat="46.62055" lon="5.90799">
        <ele>956.44</ele>
        <time>2019-05-22T08:40:35.000Z</time>
      </trkpt>
      <trkpt lat="46.62065" lon="5.90777">
        <ele>957.74</ele>
        <time>2019-05-22T08:40:55.000Z</time>
      </trkpt>
      <trkpt lat="46.62057" lon="5.90752">
        <ele>955.51</ele>
        <time>2019-05-22T08:41:19.000Z</time>
      </trkpt>
      <trkpt lat="46.62048" lon="5.90729">
        <ele>955.81</ele>
        <time>2019-05-22T08:41:33.000Z</time>
      </trkpt>
      <trkpt lat="46.6204" lon="5.90704">
        <ele>954.74</ele>
        <time>2019-05-22T08:41:48.000Z</time>
      </trkpt>
      <trkpt lat="46.62048" lon="5.90679">
        <ele>960.21</ele>
        <time>2019-05-22T08:42:09.000Z</time>
      </trkpt>
      <trkpt lat="46.6204" lon="5.90655">
        <ele>963.62</ele>
        <time>2019-05-22T08:42:37.000Z</time>
      </trkpt>
      <trkpt lat="46.62023" lon="5.90644">
        <ele>961.73</ele>
        <time>2019-05-22T08:44:59.000Z</time>
      </trkpt>
      <trkpt lat="46.62009" lon="5.90627">
        <ele>961.45</ele>
        <time>2019-05-22T08:45:17.000Z</time>
      </trkpt>
      <trkpt lat="46.61993" lon="5.90614">
        <ele>961.78</ele>
        <time>2019-05-22T08:45:34.000Z</time>
      </trkpt>
      <trkpt lat="46.61983" lon="5.9059">
        <ele>964.45</ele>
        <time>2019-05-22T08:45:51.000Z</time>
      </trkpt>
      <trkpt lat="46.61971" lon="5.90569">
        <ele>962.34</ele>
        <time>2019-05-22T08:46:15.000Z</time>
      </trkpt>
      <trkpt lat="46.61955" lon="5.90554">
        <ele>965.26</ele>
        <time>2019-05-22T08:46:42.000Z</time>
      </trkpt>
      <trkpt lat="46.61941" lon="5.90537">
        <ele>963.69</ele>
        <time>2019-05-22T08:47:01.000Z</time>
      </trkpt>
      <trkpt lat="46.61928" lon="5.90518">
        <ele>968.15</ele>
        <time>2019-05-22T08:47:19.000Z</time>
      </trkpt>
      <trkpt lat="46.61911" lon="5.90507">
        <ele>964.59</ele>
        <time>2019-05-22T08:47:37.000Z</time>
      </trkpt>
      <trkpt lat="46.61894" lon="5.90495">
        <ele>967.17</ele>
        <time>2019-05-22T08:48:05.000Z</time>
      </trkpt>
      <trkpt lat="46.61881" lon="5.90475">
        <ele>968.27</ele>
        <time>2019-05-22T08:48:18.000Z</time>
      </trkpt>
      <trkpt lat="46.61868" lon="5.90456">
        <ele>968.5</ele>
        <time>2019-05-22T08:48:44.000Z</time>
      </trkpt>
      <trkpt lat="46.61852" lon="5.9044">
        <ele>977.29</ele>
        <time>2019-05-22T08:49:14.000Z</time>
      </trkpt>
      <trkpt lat="46.61837" lon="5.90425">
        <ele>978.76</ele>
        <time>2019-05-22T08:49:35.000Z</time>
      </trkpt>
      <trkpt lat="46.61824" lon="5.90408">
        <ele>981.69</ele>
        <time>2019-05-22T08:49:55.000Z</time>
      </trkpt>
      <trkpt lat="46.61806" lon="5.90401">
        <ele>983.82</ele>
        <time>2019-05-22T08:50:19.000Z</time>
      </trkpt>
      <trkpt lat="46.61789" lon="5.90391">
        <ele>980.76</ele>
        <time>2019-05-22T08:51:04.000Z</time>
      </trkpt>
      <trkpt lat="46.61771" lon="5.90395">
        <ele>979.97</ele>
        <time>2019-05-22T08:51:28.000Z</time>
      </trkpt>
      <trkpt lat="46.61752" lon="5.90389">
        <ele>976.12</ele>
        <time>2019-05-22T08:51:53.000Z</time>
      </trkpt>
      <trkpt lat="46.61734" lon="5.90396">
        <ele>969.21</ele>
        <time>2019-05-22T08:52:21.000Z</time>
      </trkpt>
      <trkpt lat="46.61722" lon="5.90376">
        <ele>972.2</ele>
        <time>2019-05-22T08:52:38.000Z</time>
      </trkpt>
      <trkpt lat="46.61714" lon="5.90401">
        <ele>973.81</ele>
        <time>2019-05-22T08:53:31.000Z</time>
      </trkpt>
      <trkpt lat="46.61699" lon="5.90419">
        <ele>975.04</ele>
        <time>2019-05-22T08:53:54.000Z</time>
      </trkpt>
      <trkpt lat="46.61683" lon="5.90432">
        <ele>974.28</ele>
        <time>2019-05-22T08:54:15.000Z</time>
      </trkpt>
      <trkpt lat="46.61665" lon="5.90438">
        <ele>982.75</ele>
        <time>2019-05-22T08:54:44.000Z</time>
      </trkpt>
      <trkpt lat="46.61648" lon="5.90428">
        <ele>979.71</ele>
        <time>2019-05-22T08:54:59.000Z</time>
      </trkpt>
      <trkpt lat="46.6163" lon="5.9042">
        <ele>979.45</ele>
        <time>2019-05-22T08:55:14.000Z</time>
      </trkpt>
      <trkpt lat="46.61616" lon="5.90403">
        <ele>986.71</ele>
        <time>2019-05-22T08:55:30.000Z</time>
      </trkpt>
      <trkpt lat="46.61602" lon="5.90384">
        <ele>990.57</ele>
        <time>2019-05-22T08:55:50.000Z</time>
      </trkpt>
      <trkpt lat="46.61589" lon="5.90363">
        <ele>986.25</ele>
        <time>2019-05-22T08:56:05.000Z</time>
      </trkpt>
      <trkpt lat="46.61575" lon="5.90345">
        <ele>988.38</ele>
        <time>2019-05-22T08:56:20.000Z</time>
      </trkpt>
      <trkpt lat="46.61562" lon="5.90327">
        <ele>989.01</ele>
        <time>2019-05-22T08:56:40.000Z</time>
      </trkpt>
      <trkpt lat="46.6155" lon="5.90306">
        <ele>992.13</ele>
        <time>2019-05-22T08:56:58.000Z</time>
      </trkpt>
      <trkpt lat="46.61533" lon="5.90293">
        <ele>994.2</ele>
        <time>2019-05-22T08:57:47.000Z</time>
      </trkpt>
      <trkpt lat="46.61521" lon="5.90273">
        <ele>996.29</ele>
        <time>2019-05-22T08:58:07.000Z</time>
      </trkpt>
      <trkpt lat="46.61509" lon="5.90253">
        <ele>990.31</ele>
        <time>2019-05-22T08:58:34.000Z</time>
      </trkpt>
      <trkpt lat="46.61491" lon="5.90242">
        <ele>993.44</ele>
        <time>2019-05-22T08:58:48.000Z</time>
      </trkpt>
      <trkpt lat="46.61481" lon="5.9022">
        <ele>987.15</ele>
        <time>2019-05-22T08:59:15.000Z</time>
      </trkpt>
      <trkpt lat="46.61464" lon="5.90226">
        <ele>988.42</ele>
        <time>2019-05-22T09:01:20.000Z</time>
      </trkpt>
      <trkpt lat="46.61482" lon="5.90221">
        <ele>990.22</ele>
        <time>2019-05-22T09:03:20.000Z</time>
      </trkpt>
      <trkpt lat="46.61466" lon="5.90205">
        <ele>987.36</ele>
        <time>2019-05-22T09:03:40.000Z</time>
      </trkpt>
      <trkpt lat="46.6145" lon="5.90217">
        <ele>979.72</ele>
        <time>2019-05-22T09:04:29.000Z</time>
      </trkpt>
      <trkpt lat="46.61436" lon="5.90235">
        <ele>975.14</ele>
        <time>2019-05-22T09:05:03.000Z</time>
      </trkpt>
      <trkpt lat="46.61428" lon="5.90259">
        <ele>966.52</ele>
        <time>2019-05-22T09:05:25.000Z</time>
      </trkpt>
      <trkpt lat="46.61411" lon="5.9027">
        <ele>961.5</ele>
        <time>2019-05-22T09:06:12.000Z</time>
      </trkpt>
      <trkpt lat="46.61394" lon="5.90277">
        <ele>957.48</ele>
        <time>2019-05-22T09:06:38.000Z</time>
      </trkpt>
      <trkpt lat="46.6138" lon="5.90294">
        <ele>950.53</ele>
        <time>2019-05-22T09:06:53.000Z</time>
      </trkpt>
      <trkpt lat="46.61362" lon="5.90303">
        <ele>947.8</ele>
        <time>2019-05-22T09:07:53.000Z</time>
      </trkpt>
      <trkpt lat="46.6135" lon="5.90323">
        <ele>941.51</ele>
        <time>2019-05-22T09:08:08.000Z</time>
      </trkpt>
      <trkpt lat="46.61334" lon="5.90334">
        <ele>938.32</ele>
        <time>2019-05-22T09:08:29.000Z</time>
      </trkpt>
      <trkpt lat="46.61315" lon="5.90336">
        <ele>934.53</ele>
        <time>2019-05-22T09:08:46.000Z</time>
      </trkpt>
      <trkpt lat="46.61296" lon="5.90346">
        <ele>935.06</ele>
        <time>2019-05-22T09:09:03.000Z</time>
      </trkpt>
      <trkpt lat="46.61281" lon="5.90361">
        <ele>928.51</ele>
        <time>2019-05-22T09:09:32.000Z</time>
      </trkpt>
      <trkpt lat="46.61262" lon="5.90362">
        <ele>923.45</ele>
        <time>2019-05-22T09:09:45.000Z</time>
      </trkpt>
      <trkpt lat="46.61245" lon="5.90355">
        <ele>923.72</ele>
        <time>2019-05-22T09:09:58.000Z</time>
      </trkpt>
      <trkpt lat="46.61225" lon="5.90357">
        <ele>922.4</ele>
        <time>2019-05-22T09:10:10.000Z</time>
      </trkpt>
      <trkpt lat="46.61208" lon="5.90368">
        <ele>923.48</ele>
        <time>2019-05-22T09:10:24.000Z</time>
      </trkpt>
      <trkpt lat="46.6119" lon="5.90379">
        <ele>919.52</ele>
        <time>2019-05-22T09:10:39.000Z</time>
      </trkpt>
      <trkpt lat="46.61175" lon="5.90393">
        <ele>921.05</ele>
        <time>2019-05-22T09:10:53.000Z</time>
      </trkpt>
      <trkpt lat="46.61156" lon="5.90398">
        <ele>916.37</ele>
        <time>2019-05-22T09:11:08.000Z</time>
      </trkpt>
      <trkpt lat="46.61138" lon="5.90402">
        <ele>917.72</ele>
        <time>2019-05-22T09:11:24.000Z</time>
      </trkpt>
      <trkpt lat="46.61121" lon="5.90413">
        <ele>912.02</ele>
        <time>2019-05-22T09:11:38.000Z</time>
      </trkpt>
      <trkpt lat="46.61103" lon="5.9042">
        <ele>910.41</ele>
        <time>2019-05-22T09:11:55.000Z</time>
      </trkpt>
      <trkpt lat="46.61085" lon="5.90425">
        <ele>904.73</ele>
        <time>2019-05-22T09:12:09.000Z</time>
      </trkpt>
      <trkpt lat="46.61067" lon="5.90433">
        <ele>907.46</ele>
        <time>2019-05-22T09:12:25.000Z</time>
      </trkpt>
      <trkpt lat="46.61049" lon="5.90444">
        <ele>901.36</ele>
        <time>2019-05-22T09:12:44.000Z</time>
      </trkpt>
      <trkpt lat="46.61031" lon="5.90449">
        <ele>902.39</ele>
        <time>2019-05-22T09:12:59.000Z</time>
      </trkpt>
      <trkpt lat="46.61013" lon="5.90447">
        <ele>900.69</ele>
        <time>2019-05-22T09:13:13.000Z</time>
      </trkpt>
      <trkpt lat="46.60998" lon="5.90431">
        <ele>899.36</ele>
        <time>2019-05-22T09:13:27.000Z</time>
      </trkpt>
      <trkpt lat="46.60984" lon="5.90414">
        <ele>898.41</ele>
        <time>2019-05-22T09:13:48.000Z</time>
      </trkpt>
      <trkpt lat="46.60966" lon="5.90408">
        <ele>898.5</ele>
        <time>2019-05-22T09:14:06.000Z</time>
      </trkpt>
      <trkpt lat="46.60946" lon="5.90407">
        <ele>897.07</ele>
        <time>2019-05-22T09:14:20.000Z</time>
      </trkpt>
      <trkpt lat="46.60928" lon="5.904">
        <ele>890.74</ele>
        <time>2019-05-22T09:14:36.000Z</time>
      </trkpt>
      <trkpt lat="46.6091" lon="5.90389">
        <ele>889.42</ele>
        <time>2019-05-22T09:15:06.000Z</time>
      </trkpt>
      <trkpt lat="46.60896" lon="5.90373">
        <ele>890.41</ele>
        <time>2019-05-22T09:15:19.000Z</time>
      </trkpt>
      <trkpt lat="46.60908" lon="5.90354">
        <ele>895.99</ele>
        <time>2019-05-22T09:15:44.000Z</time>
      </trkpt>
      <trkpt lat="46.60892" lon="5.90366">
        <ele>893.43</ele>
        <time>2019-05-22T09:16:35.000Z</time>
      </trkpt>
      <trkpt lat="46.60872" lon="5.90363">
        <ele>890.22</ele>
        <time>2019-05-22T09:16:51.000Z</time>
      </trkpt>
      <trkpt lat="46.60856" lon="5.90374">
        <ele>888.65</ele>
        <time>2019-05-22T09:17:04.000Z</time>
      </trkpt>
      <trkpt lat="46.60837" lon="5.90376">
        <ele>886.72</ele>
        <time>2019-05-22T09:17:17.000Z</time>
      </trkpt>
      <trkpt lat="46.6082" lon="5.90384">
        <ele>888.44</ele>
        <time>2019-05-22T09:17:28.000Z</time>
      </trkpt>
      <trkpt lat="46.60836" lon="5.9037">
        <ele>889.95</ele>
        <time>2019-05-22T09:18:01.000Z</time>
      </trkpt>
      <trkpt lat="46.60854" lon="5.90362">
        <ele>886.69</ele>
        <time>2019-05-22T09:18:14.000Z</time>
      </trkpt>
      <trkpt lat="46.60871" lon="5.90349">
        <ele>888.41</ele>
        <time>2019-05-22T09:18:27.000Z</time>
      </trkpt>
      <trkpt lat="46.60886" lon="5.90333">
        <ele>882.71</ele>
        <time>2019-05-22T09:18:38.000Z</time>
      </trkpt>
      <trkpt lat="46.60902" lon="5.9032">
        <ele>881.13</ele>
        <time>2019-05-22T09:18:51.000Z</time>
      </trkpt>
      <trkpt lat="46.60918" lon="5.90305">
        <ele>882.81</ele>
        <time>2019-05-22T09:19:03.000Z</time>
      </trkpt>
      <trkpt lat="46.60933" lon="5.90291">
        <ele>879.53</ele>
        <time>2019-05-22T09:19:16.000Z</time>
      </trkpt>
      <trkpt lat="46.60945" lon="5.90269">
        <ele>881.94</ele>
        <time>2019-05-22T09:19:34.000Z</time>
      </trkpt>
      <trkpt lat="46.60964" lon="5.90267">
        <ele>882.31</ele>
        <time>2019-05-22T09:19:46.000Z</time>
      </trkpt>
      <trkpt lat="46.60979" lon="5.90251">
        <ele>876.36</ele>
        <time>2019-05-22T09:19:58.000Z</time>
      </trkpt>
      <trkpt lat="46.60995" lon="5.90236">
        <ele>873.28</ele>
        <time>2019-05-22T09:20:10.000Z</time>
      </trkpt>
      <trkpt lat="46.61014" lon="5.90229">
        <ele>868.92</ele>
        <time>2019-05-22T09:20:23.000Z</time>
      </trkpt>
      <trkpt lat="46.61029" lon="5.90212">
        <ele>865.47</ele>
        <time>2019-05-22T09:20:42.000Z</time>
      </trkpt>
      <trkpt lat="46.61045" lon="5.90201">
        <ele>861.54</ele>
        <time>2019-05-22T09:20:55.000Z</time>
      </trkpt>
      <trkpt lat="46.61061" lon="5.90188">
        <ele>864.47</ele>
        <time>2019-05-22T09:21:09.000Z</time>
      </trkpt>
      <trkpt lat="46.61079" lon="5.90176">
        <ele>868.72</ele>
        <time>2019-05-22T09:21:25.000Z</time>
      </trkpt>
      <trkpt lat="46.61092" lon="5.90155">
        <ele>865.92</ele>
        <time>2019-05-22T09:21:39.000Z</time>
      </trkpt>
      <trkpt lat="46.61111" lon="5.9015">
        <ele>863.08</ele>
        <time>2019-05-22T09:21:51.000Z</time>
      </trkpt>
      <trkpt lat="46.61128" lon="5.9014">
        <ele>859.4</ele>
        <time>2019-05-22T09:22:06.000Z</time>
      </trkpt>
      <trkpt lat="46.61135" lon="5.90114">
        <ele>860.65</ele>
        <time>2019-05-22T09:22:21.000Z</time>
      </trkpt>
      <trkpt lat="46.61135" lon="5.90088">
        <ele>854.97</ele>
        <time>2019-05-22T09:22:32.000Z</time>
      </trkpt>
      <trkpt lat="46.61134" lon="5.9006">
        <ele>850.54</ele>
        <time>2019-05-22T09:22:47.000Z</time>
      </trkpt>
      <trkpt lat="46.61136" lon="5.90033">
        <ele>848.18</ele>
        <time>2019-05-22T09:23:03.000Z</time>
      </trkpt>
      <trkpt lat="46.61137" lon="5.90006">
        <ele>843.63</ele>
        <time>2019-05-22T09:23:19.000Z</time>
      </trkpt>
      <trkpt lat="46.61148" lon="5.89984">
        <ele>836.83</ele>
        <time>2019-05-22T09:23:36.000Z</time>
      </trkpt>
      <trkpt lat="46.61156" lon="5.89959">
        <ele>837.42</ele>
        <time>2019-05-22T09:23:53.000Z</time>
      </trkpt>
      <trkpt lat="46.61157" lon="5.89932">
        <ele>837.72</ele>
        <time>2019-05-22T09:24:06.000Z</time>
      </trkpt>
      <trkpt lat="46.61164" lon="5.89907">
        <ele>833.42</ele>
        <time>2019-05-22T09:24:25.000Z</time>
      </trkpt>
      <trkpt lat="46.61181" lon="5.89893">
        <ele>834.4</ele>
        <time>2019-05-22T09:24:52.000Z</time>
      </trkpt>
      <trkpt lat="46.6119" lon="5.89868">
        <ele>833.46</ele>
        <time>2019-05-22T09:25:08.000Z</time>
      </trkpt>
      <trkpt lat="46.61204" lon="5.89851">
        <ele>829.4</ele>
        <time>2019-05-22T09:25:21.000Z</time>
      </trkpt>
      <trkpt lat="46.61221" lon="5.89837">
        <ele>826.53</ele>
        <time>2019-05-22T09:25:36.000Z</time>
      </trkpt>
      <trkpt lat="46.61238" lon="5.89823">
        <ele>826.45</ele>
        <time>2019-05-22T09:25:47.000Z</time>
      </trkpt>
      <trkpt lat="46.61251" lon="5.89805">
        <ele>825.12</ele>
        <time>2019-05-22T09:26:04.000Z</time>
      </trkpt>
      <trkpt lat="46.61268" lon="5.89795">
        <ele>815.07</ele>
        <time>2019-05-22T09:26:16.000Z</time>
      </trkpt>
      <trkpt lat="46.61282" lon="5.89778">
        <ele>816.4</ele>
        <time>2019-05-22T09:26:30.000Z</time>
      </trkpt>
      <trkpt lat="46.61299" lon="5.89764">
        <ele>819.3</ele>
        <time>2019-05-22T09:26:43.000Z</time>
      </trkpt>
      <trkpt lat="46.61316" lon="5.89756">
        <ele>814.56</ele>
        <time>2019-05-22T09:26:54.000Z</time>
      </trkpt>
      <trkpt lat="46.61329" lon="5.89737">
        <ele>815.88</ele>
        <time>2019-05-22T09:27:06.000Z</time>
      </trkpt>
      <trkpt lat="46.61336" lon="5.89711">
        <ele>816.72</ele>
        <time>2019-05-22T09:27:18.000Z</time>
      </trkpt>
      <trkpt lat="46.61343" lon="5.89686">
        <ele>817.71</ele>
        <time>2019-05-22T09:27:30.000Z</time>
      </trkpt>
      <trkpt lat="46.61344" lon="5.8966">
        <ele>812.26</ele>
        <time>2019-05-22T09:27:44.000Z</time>
      </trkpt>
      <trkpt lat="46.61339" lon="5.89632">
        <ele>809.84</ele>
        <time>2019-05-22T09:27:58.000Z</time>
      </trkpt>
      <trkpt lat="46.61332" lon="5.89608">
        <ele>804.51</ele>
        <time>2019-05-22T09:28:11.000Z</time>
      </trkpt>
      <trkpt lat="46.6132" lon="5.89587">
        <ele>806.99</ele>
        <time>2019-05-22T09:28:24.000Z</time>
      </trkpt>
      <trkpt lat="46.61308" lon="5.89564">
        <ele>807.71</ele>
        <time>2019-05-22T09:28:40.000Z</time>
      </trkpt>
      <trkpt lat="46.61296" lon="5.89543">
        <ele>811.34</ele>
        <time>2019-05-22T09:28:54.000Z</time>
      </trkpt>
      <trkpt lat="46.61297" lon="5.89516">
        <ele>814.12</ele>
        <time>2019-05-22T09:29:26.000Z</time>
      </trkpt>
      <trkpt lat="46.61292" lon="5.8949">
        <ele>812.42</ele>
        <time>2019-05-22T09:29:44.000Z</time>
      </trkpt>
      <trkpt lat="46.61301" lon="5.89466">
        <ele>808.72</ele>
        <time>2019-05-22T09:30:11.000Z</time>
      </trkpt>
      <trkpt lat="46.61319" lon="5.89461">
        <ele>799.95</ele>
        <time>2019-05-22T09:30:23.000Z</time>
      </trkpt>
      <trkpt lat="46.61335" lon="5.89448">
        <ele>800.43</ele>
        <time>2019-05-22T09:31:31.000Z</time>
      </trkpt>
      <trkpt lat="46.61339" lon="5.89421">
        <ele>800.5</ele>
        <time>2019-05-22T09:33:09.000Z</time>
      </trkpt>
      <trkpt lat="46.61338" lon="5.89394">
        <ele>805.14</ele>
        <time>2019-05-22T09:33:28.000Z</time>
      </trkpt>
      <trkpt lat="46.61335" lon="5.89368">
        <ele>804.43</ele>
        <time>2019-05-22T09:33:42.000Z</time>
      </trkpt>
      <trkpt lat="46.61318" lon="5.89355">
        <ele>803.64</ele>
        <time>2019-05-22T09:33:53.000Z</time>
      </trkpt>
      <trkpt lat="46.61308" lon="5.89331">
        <ele>804.86</ele>
        <time>2019-05-22T09:34:16.000Z</time>
      </trkpt>
      <trkpt lat="46.61314" lon="5.89305">
        <ele>802.42</ele>
        <time>2019-05-22T09:34:34.000Z</time>
      </trkpt>
      <trkpt lat="46.61323" lon="5.89279">
        <ele>797.51</ele>
        <time>2019-05-22T09:34:49.000Z</time>
      </trkpt>
      <trkpt lat="46.61333" lon="5.89257">
        <ele>792.5</ele>
        <time>2019-05-22T09:35:03.000Z</time>
      </trkpt>
      <trkpt lat="46.61345" lon="5.89237">
        <ele>790.05</ele>
        <time>2019-05-22T09:35:17.000Z</time>
      </trkpt>
      <trkpt lat="46.61359" lon="5.89218">
        <ele>791.39</ele>
        <time>2019-05-22T09:35:32.000Z</time>
      </trkpt>
      <trkpt lat="46.61373" lon="5.89201">
        <ele>789.08</ele>
        <time>2019-05-22T09:35:46.000Z</time>
      </trkpt>
      <trkpt lat="46.6139" lon="5.89189">
        <ele>787.32</ele>
        <time>2019-05-22T09:35:59.000Z</time>
      </trkpt>
      <trkpt lat="46.61404" lon="5.89171">
        <ele>790.71</ele>
        <time>2019-05-22T09:36:13.000Z</time>
      </trkpt>
      <trkpt lat="46.61422" lon="5.89165">
        <ele>785.23</ele>
        <time>2019-05-22T09:36:29.000Z</time>
      </trkpt>
      <trkpt lat="46.6144" lon="5.89158">
        <ele>782.36</ele>
        <time>2019-05-22T09:36:44.000Z</time>
      </trkpt>
      <trkpt lat="46.6146" lon="5.89156">
        <ele>782.95</ele>
        <time>2019-05-22T09:36:55.000Z</time>
      </trkpt>
      <trkpt lat="46.61477" lon="5.89147">
        <ele>780.44</ele>
        <time>2019-05-22T09:37:09.000Z</time>
      </trkpt>
      <trkpt lat="46.61495" lon="5.89143">
        <ele>777.51</ele>
        <time>2019-05-22T09:37:26.000Z</time>
      </trkpt>
      <trkpt lat="46.61513" lon="5.89136">
        <ele>782.07</ele>
        <time>2019-05-22T09:37:39.000Z</time>
      </trkpt>
      <trkpt lat="46.61525" lon="5.89115">
        <ele>776.42</ele>
        <time>2019-05-22T09:37:54.000Z</time>
      </trkpt>
      <trkpt lat="46.61543" lon="5.89109">
        <ele>771.76</ele>
        <time>2019-05-22T09:38:10.000Z</time>
      </trkpt>
      <trkpt lat="46.6156" lon="5.89103">
        <ele>777.72</ele>
        <time>2019-05-22T09:38:25.000Z</time>
      </trkpt>
      <trkpt lat="46.61579" lon="5.89097">
        <ele>773.81</ele>
        <time>2019-05-22T09:38:40.000Z</time>
      </trkpt>
      <trkpt lat="46.61597" lon="5.89105">
        <ele>781.81</ele>
        <time>2019-05-22T09:38:54.000Z</time>
      </trkpt>
      <trkpt lat="46.61617" lon="5.89105">
        <ele>779.65</ele>
        <time>2019-05-22T09:39:08.000Z</time>
      </trkpt>
      <trkpt lat="46.61628" lon="5.89085">
        <ele>777.23</ele>
        <time>2019-05-22T09:39:19.000Z</time>
      </trkpt>
      <trkpt lat="46.61636" lon="5.89059">
        <ele>774.47</ele>
        <time>2019-05-22T09:39:31.000Z</time>
      </trkpt>
      <trkpt lat="46.61642" lon="5.89034">
        <ele>776.35</ele>
        <time>2019-05-22T09:39:44.000Z</time>
      </trkpt>
      <trkpt lat="46.61646" lon="5.89007">
        <ele>777.28</ele>
        <time>2019-05-22T09:39:59.000Z</time>
      </trkpt>
      <trkpt lat="46.61655" lon="5.88984">
        <ele>778.43</ele>
        <time>2019-05-22T09:40:13.000Z</time>
      </trkpt>
      <trkpt lat="46.61673" lon="5.88977">
        <ele>778.35</ele>
        <time>2019-05-22T09:40:33.000Z</time>
      </trkpt>
      <trkpt lat="46.61692" lon="5.88974">
        <ele>783.41</ele>
        <time>2019-05-22T09:40:48.000Z</time>
      </trkpt>
      <trkpt lat="46.61711" lon="5.88975">
        <ele>785.14</ele>
        <time>2019-05-22T09:41:06.000Z</time>
      </trkpt>
      <trkpt lat="46.61728" lon="5.88985">
        <ele>781.17</ele>
        <time>2019-05-22T09:41:44.000Z</time>
      </trkpt>
      <trkpt lat="46.61747" lon="5.88993">
        <ele>771.87</ele>
        <time>2019-05-22T09:42:46.000Z</time>
      </trkpt>
      <trkpt lat="46.61761" lon="5.8901">
        <ele>773.71</ele>
        <time>2019-05-22T09:43:02.000Z</time>
      </trkpt>
      <trkpt lat="46.6178" lon="5.89006">
        <ele>771.63</ele>
        <time>2019-05-22T09:43:32.000Z</time>
      </trkpt>
      <trkpt lat="46.61793" lon="5.88986">
        <ele>775.33</ele>
        <time>2019-05-22T09:44:12.000Z</time>
      </trkpt>
      <trkpt lat="46.61808" lon="5.88969">
        <ele>772.41</ele>
        <time>2019-05-22T09:44:27.000Z</time>
      </trkpt>
      <trkpt lat="46.6182" lon="5.88948">
        <ele>773.08</ele>
        <time>2019-05-22T09:44:51.000Z</time>
      </trkpt>
      <trkpt lat="46.61828" lon="5.88923">
        <ele>772.42</ele>
        <time>2019-05-22T09:45:04.000Z</time>
      </trkpt>
      <trkpt lat="46.6183" lon="5.88897">
        <ele>769.78</ele>
        <time>2019-05-22T09:45:17.000Z</time>
      </trkpt>
      <trkpt lat="46.6183" lon="5.88869">
        <ele>772.31</ele>
        <time>2019-05-22T09:45:32.000Z</time>
      </trkpt>
      <trkpt lat="46.61834" lon="5.88842">
        <ele>774.48</ele>
        <time>2019-05-22T09:45:46.000Z</time>
      </trkpt>
      <trkpt lat="46.6184" lon="5.88815">
        <ele>771.48</ele>
        <time>2019-05-22T09:46:00.000Z</time>
      </trkpt>
      <trkpt lat="46.61854" lon="5.88795">
        <ele>770.49</ele>
        <time>2019-05-22T09:46:18.000Z</time>
      </trkpt>
    </trkseg>
  </trk>
</gpx>